<?xml version="1.0" encoding="UTF-8" standalone="no" ?>
<gpx xmlns="http://www.topografix.com/GPX/1/1" xmlns:xsi="http://www.w3.org/2001/XMLSchema-instance" xsi:schemaLocation="http://www.topografix.com/GPX/1/1 http://www.topografix.com/GPX/1/1/gpx.xsd" version="1.1" creator="VisuGPX - https://www.visugpx.com">
  <metadata>
    <name>Rando de 22 km d' Emerainville à Tournan-en-Brie (77) </name>
    <desc><![CDATA[Randonnée de gare à gare entre Emerainville et Tournan (77) .
22 kilomètres. 
A retrouver sur [url]http://trekkingzone.wordpress.com[/url]]]></desc>
  </metadata>
  <trk>
    <name><![CDATA[5 juin 2016 09:28:17]]></name>
    <cmt><![CDATA[5 juin 2016 09:28:17]]></cmt>
    <trkseg>
      <trkpt lat="48.806" lon="2.6192">
        <ele>92</ele>
        <time>2016-06-05T07:28:17Z</time>
      </trkpt>
      <trkpt lat="48.80594" lon="2.61898">
        <ele>91</ele>
        <time>2016-06-05T07:28:18Z</time>
      </trkpt>
      <trkpt lat="48.80631" lon="2.61876">
        <ele>88</ele>
        <time>2016-06-05T07:28:22Z</time>
      </trkpt>
      <trkpt lat="48.80643" lon="2.61875">
        <ele>84</ele>
        <time>2016-06-05T07:28:24Z</time>
      </trkpt>
      <trkpt lat="48.80649" lon="2.61875">
        <ele>106</ele>
        <time>2016-06-05T07:29:52Z</time>
      </trkpt>
      <trkpt lat="48.8065" lon="2.6189">
        <ele>107</ele>
        <time>2016-06-05T07:30:01Z</time>
      </trkpt>
      <trkpt lat="48.80649" lon="2.61904">
        <ele>108</ele>
        <time>2016-06-05T07:30:11Z</time>
      </trkpt>
      <trkpt lat="48.80645" lon="2.61948">
        <ele>106</ele>
        <time>2016-06-05T07:30:29Z</time>
      </trkpt>
      <trkpt lat="48.80643" lon="2.61962">
        <ele>107</ele>
        <time>2016-06-05T07:30:36Z</time>
      </trkpt>
      <trkpt lat="48.80635" lon="2.61971">
        <ele>107</ele>
        <time>2016-06-05T07:30:43Z</time>
      </trkpt>
      <trkpt lat="48.80626" lon="2.61996">
        <ele>108</ele>
        <time>2016-06-05T07:30:59Z</time>
      </trkpt>
      <trkpt lat="48.80624" lon="2.62025">
        <ele>111</ele>
        <time>2016-06-05T07:31:14Z</time>
      </trkpt>
      <trkpt lat="48.80623" lon="2.6204">
        <ele>111</ele>
        <time>2016-06-05T07:31:22Z</time>
      </trkpt>
      <trkpt lat="48.8062" lon="2.62054">
        <ele>111</ele>
        <time>2016-06-05T07:31:30Z</time>
      </trkpt>
      <trkpt lat="48.80622" lon="2.62069">
        <ele>110</ele>
        <time>2016-06-05T07:31:37Z</time>
      </trkpt>
      <trkpt lat="48.80634" lon="2.62107">
        <ele>110</ele>
        <time>2016-06-05T07:31:55Z</time>
      </trkpt>
      <trkpt lat="48.80632" lon="2.62121">
        <ele>110</ele>
        <time>2016-06-05T07:32:02Z</time>
      </trkpt>
      <trkpt lat="48.80627" lon="2.62131">
        <ele>110</ele>
        <time>2016-06-05T07:32:06Z</time>
      </trkpt>
      <trkpt lat="48.8062" lon="2.6216">
        <ele>109</ele>
        <time>2016-06-05T07:32:19Z</time>
      </trkpt>
      <trkpt lat="48.80618" lon="2.62175">
        <ele>109</ele>
        <time>2016-06-05T07:32:27Z</time>
      </trkpt>
      <trkpt lat="48.80608" lon="2.62177">
        <ele>110</ele>
        <time>2016-06-05T07:32:40Z</time>
      </trkpt>
      <trkpt lat="48.80591" lon="2.62164">
        <ele>110</ele>
        <time>2016-06-05T07:32:52Z</time>
      </trkpt>
      <trkpt lat="48.80565" lon="2.62131">
        <ele>110</ele>
        <time>2016-06-05T07:33:17Z</time>
      </trkpt>
      <trkpt lat="48.8056" lon="2.62121">
        <ele>111</ele>
        <time>2016-06-05T07:33:33Z</time>
      </trkpt>
      <trkpt lat="48.80556" lon="2.62117">
        <ele>111</ele>
        <time>2016-06-05T07:33:44Z</time>
      </trkpt>
      <trkpt lat="48.80552" lon="2.62122">
        <ele>111</ele>
        <time>2016-06-05T07:33:51Z</time>
      </trkpt>
      <trkpt lat="48.80549" lon="2.62127">
        <ele>111</ele>
        <time>2016-06-05T07:33:56Z</time>
      </trkpt>
      <trkpt lat="48.80545" lon="2.62134">
        <ele>111</ele>
        <time>2016-06-05T07:34:00Z</time>
      </trkpt>
      <trkpt lat="48.80545" lon="2.62142">
        <ele>110</ele>
        <time>2016-06-05T07:34:06Z</time>
      </trkpt>
      <trkpt lat="48.80539" lon="2.62153">
        <ele>109</ele>
        <time>2016-06-05T07:34:14Z</time>
      </trkpt>
      <trkpt lat="48.80532" lon="2.62173">
        <ele>109</ele>
        <time>2016-06-05T07:34:26Z</time>
      </trkpt>
      <trkpt lat="48.80529" lon="2.62179">
        <ele>109</ele>
        <time>2016-06-05T07:34:30Z</time>
      </trkpt>
      <trkpt lat="48.80526" lon="2.62183">
        <ele>108</ele>
        <time>2016-06-05T07:34:33Z</time>
      </trkpt>
      <trkpt lat="48.80524" lon="2.62192">
        <ele>109</ele>
        <time>2016-06-05T07:34:36Z</time>
      </trkpt>
      <trkpt lat="48.80523" lon="2.62199">
        <ele>108</ele>
        <time>2016-06-05T07:34:39Z</time>
      </trkpt>
      <trkpt lat="48.8052" lon="2.62205">
        <ele>108</ele>
        <time>2016-06-05T07:34:43Z</time>
      </trkpt>
      <trkpt lat="48.80516" lon="2.62211">
        <ele>109</ele>
        <time>2016-06-05T07:34:47Z</time>
      </trkpt>
      <trkpt lat="48.80504" lon="2.62235">
        <ele>109</ele>
        <time>2016-06-05T07:35:02Z</time>
      </trkpt>
      <trkpt lat="48.80504" lon="2.62242">
        <ele>109</ele>
        <time>2016-06-05T07:35:07Z</time>
      </trkpt>
      <trkpt lat="48.80508" lon="2.62248">
        <ele>109</ele>
        <time>2016-06-05T07:35:11Z</time>
      </trkpt>
      <trkpt lat="48.80507" lon="2.62254">
        <ele>109</ele>
        <time>2016-06-05T07:35:21Z</time>
      </trkpt>
      <trkpt lat="48.80505" lon="2.62263">
        <ele>109</ele>
        <time>2016-06-05T07:35:29Z</time>
      </trkpt>
      <trkpt lat="48.80491" lon="2.62285">
        <ele>109</ele>
        <time>2016-06-05T07:35:43Z</time>
      </trkpt>
      <trkpt lat="48.80486" lon="2.62297">
        <ele>107</ele>
        <time>2016-06-05T07:35:51Z</time>
      </trkpt>
      <trkpt lat="48.80485" lon="2.62306">
        <ele>107</ele>
        <time>2016-06-05T07:35:55Z</time>
      </trkpt>
      <trkpt lat="48.80484" lon="2.62322">
        <ele>106</ele>
        <time>2016-06-05T07:36:02Z</time>
      </trkpt>
      <trkpt lat="48.80474" lon="2.6236">
        <ele>106</ele>
        <time>2016-06-05T07:36:22Z</time>
      </trkpt>
      <trkpt lat="48.80468" lon="2.62383">
        <ele>107</ele>
        <time>2016-06-05T07:36:31Z</time>
      </trkpt>
      <trkpt lat="48.80462" lon="2.624">
        <ele>106</ele>
        <time>2016-06-05T07:36:40Z</time>
      </trkpt>
      <trkpt lat="48.80458" lon="2.62413">
        <ele>107</ele>
        <time>2016-06-05T07:36:48Z</time>
      </trkpt>
      <trkpt lat="48.80456" lon="2.6242">
        <ele>107</ele>
        <time>2016-06-05T07:36:52Z</time>
      </trkpt>
      <trkpt lat="48.80454" lon="2.62428">
        <ele>106</ele>
        <time>2016-06-05T07:36:56Z</time>
      </trkpt>
      <trkpt lat="48.8045" lon="2.62443">
        <ele>105</ele>
        <time>2016-06-05T07:37:04Z</time>
      </trkpt>
      <trkpt lat="48.80443" lon="2.62457">
        <ele>105</ele>
        <time>2016-06-05T07:37:12Z</time>
      </trkpt>
      <trkpt lat="48.80437" lon="2.62479">
        <ele>104</ele>
        <time>2016-06-05T07:37:24Z</time>
      </trkpt>
      <trkpt lat="48.80419" lon="2.62527">
        <ele>109</ele>
        <time>2016-06-05T07:37:51Z</time>
      </trkpt>
      <trkpt lat="48.8042" lon="2.62536">
        <ele>109</ele>
        <time>2016-06-05T07:37:54Z</time>
      </trkpt>
      <trkpt lat="48.80418" lon="2.62542">
        <ele>110</ele>
        <time>2016-06-05T07:37:57Z</time>
      </trkpt>
      <trkpt lat="48.80409" lon="2.62559">
        <ele>110</ele>
        <time>2016-06-05T07:38:07Z</time>
      </trkpt>
      <trkpt lat="48.80408" lon="2.62565">
        <ele>110</ele>
        <time>2016-06-05T07:38:09Z</time>
      </trkpt>
      <trkpt lat="48.8041" lon="2.62572">
        <ele>110</ele>
        <time>2016-06-05T07:38:13Z</time>
      </trkpt>
      <trkpt lat="48.80413" lon="2.62577">
        <ele>110</ele>
        <time>2016-06-05T07:38:16Z</time>
      </trkpt>
      <trkpt lat="48.80413" lon="2.62584">
        <ele>111</ele>
        <time>2016-06-05T07:38:23Z</time>
      </trkpt>
      <trkpt lat="48.80412" lon="2.62591">
        <ele>110</ele>
        <time>2016-06-05T07:38:33Z</time>
      </trkpt>
      <trkpt lat="48.80417" lon="2.62588">
        <ele>109</ele>
        <time>2016-06-05T07:38:41Z</time>
      </trkpt>
      <trkpt lat="48.80422" lon="2.62585">
        <ele>109</ele>
        <time>2016-06-05T07:38:45Z</time>
      </trkpt>
      <trkpt lat="48.80426" lon="2.62588">
        <ele>109</ele>
        <time>2016-06-05T07:38:49Z</time>
      </trkpt>
      <trkpt lat="48.80438" lon="2.62601">
        <ele>108</ele>
        <time>2016-06-05T07:39:03Z</time>
      </trkpt>
      <trkpt lat="48.80442" lon="2.62604">
        <ele>108</ele>
        <time>2016-06-05T07:39:06Z</time>
      </trkpt>
      <trkpt lat="48.80454" lon="2.62629">
        <ele>110</ele>
        <time>2016-06-05T07:39:19Z</time>
      </trkpt>
      <trkpt lat="48.80488" lon="2.62678">
        <ele>109</ele>
        <time>2016-06-05T07:39:53Z</time>
      </trkpt>
      <trkpt lat="48.8049" lon="2.62686">
        <ele>109</ele>
        <time>2016-06-05T07:39:59Z</time>
      </trkpt>
      <trkpt lat="48.80492" lon="2.6271">
        <ele>108</ele>
        <time>2016-06-05T07:40:10Z</time>
      </trkpt>
      <trkpt lat="48.80491" lon="2.62716">
        <ele>108</ele>
        <time>2016-06-05T07:40:17Z</time>
      </trkpt>
      <trkpt lat="48.80489" lon="2.62723">
        <ele>108</ele>
        <time>2016-06-05T07:40:30Z</time>
      </trkpt>
      <trkpt lat="48.80484" lon="2.62722">
        <ele>108</ele>
        <time>2016-06-05T07:40:35Z</time>
      </trkpt>
      <trkpt lat="48.80474" lon="2.62724">
        <ele>109</ele>
        <time>2016-06-05T07:40:45Z</time>
      </trkpt>
      <trkpt lat="48.80459" lon="2.62716">
        <ele>109</ele>
        <time>2016-06-05T07:40:55Z</time>
      </trkpt>
      <trkpt lat="48.80454" lon="2.62716">
        <ele>110</ele>
        <time>2016-06-05T07:40:58Z</time>
      </trkpt>
      <trkpt lat="48.80445" lon="2.62719">
        <ele>110</ele>
        <time>2016-06-05T07:41:04Z</time>
      </trkpt>
      <trkpt lat="48.80441" lon="2.62723">
        <ele>111</ele>
        <time>2016-06-05T07:41:08Z</time>
      </trkpt>
      <trkpt lat="48.80437" lon="2.62728">
        <ele>111</ele>
        <time>2016-06-05T07:41:14Z</time>
      </trkpt>
      <trkpt lat="48.80413" lon="2.62765">
        <ele>112</ele>
        <time>2016-06-05T07:42:02Z</time>
      </trkpt>
      <trkpt lat="48.80408" lon="2.62778">
        <ele>113</ele>
        <time>2016-06-05T07:42:04Z</time>
      </trkpt>
      <trkpt lat="48.80414" lon="2.6278">
        <ele>112</ele>
        <time>2016-06-05T07:42:06Z</time>
      </trkpt>
      <trkpt lat="48.80415" lon="2.62788">
        <ele>111</ele>
        <time>2016-06-05T07:42:09Z</time>
      </trkpt>
      <trkpt lat="48.80413" lon="2.62796">
        <ele>110</ele>
        <time>2016-06-05T07:42:13Z</time>
      </trkpt>
      <trkpt lat="48.80408" lon="2.62804">
        <ele>110</ele>
        <time>2016-06-05T07:42:15Z</time>
      </trkpt>
      <trkpt lat="48.80404" lon="2.62809">
        <ele>111</ele>
        <time>2016-06-05T07:42:18Z</time>
      </trkpt>
      <trkpt lat="48.80401" lon="2.62819">
        <ele>112</ele>
        <time>2016-06-05T07:42:29Z</time>
      </trkpt>
      <trkpt lat="48.80402" lon="2.6283">
        <ele>113</ele>
        <time>2016-06-05T07:42:45Z</time>
      </trkpt>
      <trkpt lat="48.80399" lon="2.62832">
        <ele>114</ele>
        <time>2016-06-05T07:43:25Z</time>
      </trkpt>
      <trkpt lat="48.80402" lon="2.62837">
        <ele>112</ele>
        <time>2016-06-05T07:43:50Z</time>
      </trkpt>
      <trkpt lat="48.80407" lon="2.62837">
        <ele>109</ele>
        <time>2016-06-05T07:44:05Z</time>
      </trkpt>
      <trkpt lat="48.8041" lon="2.62843">
        <ele>110</ele>
        <time>2016-06-05T07:44:11Z</time>
      </trkpt>
      <trkpt lat="48.80411" lon="2.62852">
        <ele>110</ele>
        <time>2016-06-05T07:44:16Z</time>
      </trkpt>
      <trkpt lat="48.80411" lon="2.62859">
        <ele>110</ele>
        <time>2016-06-05T07:44:20Z</time>
      </trkpt>
      <trkpt lat="48.80411" lon="2.62866">
        <ele>109</ele>
        <time>2016-06-05T07:44:24Z</time>
      </trkpt>
      <trkpt lat="48.80406" lon="2.62878">
        <ele>108</ele>
        <time>2016-06-05T07:44:33Z</time>
      </trkpt>
      <trkpt lat="48.80404" lon="2.62894">
        <ele>108</ele>
        <time>2016-06-05T07:44:43Z</time>
      </trkpt>
      <trkpt lat="48.80406" lon="2.62901">
        <ele>107</ele>
        <time>2016-06-05T07:44:47Z</time>
      </trkpt>
      <trkpt lat="48.80406" lon="2.62924">
        <ele>107</ele>
        <time>2016-06-05T07:44:57Z</time>
      </trkpt>
      <trkpt lat="48.80407" lon="2.62931">
        <ele>107</ele>
        <time>2016-06-05T07:45:01Z</time>
      </trkpt>
      <trkpt lat="48.80408" lon="2.6294">
        <ele>107</ele>
        <time>2016-06-05T07:45:05Z</time>
      </trkpt>
      <trkpt lat="48.80405" lon="2.62947">
        <ele>107</ele>
        <time>2016-06-05T07:45:08Z</time>
      </trkpt>
      <trkpt lat="48.80407" lon="2.62954">
        <ele>108</ele>
        <time>2016-06-05T07:45:11Z</time>
      </trkpt>
      <trkpt lat="48.80409" lon="2.62961">
        <ele>108</ele>
        <time>2016-06-05T07:45:14Z</time>
      </trkpt>
      <trkpt lat="48.80412" lon="2.62968">
        <ele>108</ele>
        <time>2016-06-05T07:45:18Z</time>
      </trkpt>
      <trkpt lat="48.80414" lon="2.62975">
        <ele>108</ele>
        <time>2016-06-05T07:45:22Z</time>
      </trkpt>
      <trkpt lat="48.80419" lon="2.6299">
        <ele>108</ele>
        <time>2016-06-05T07:45:29Z</time>
      </trkpt>
      <trkpt lat="48.8042" lon="2.62997">
        <ele>108</ele>
        <time>2016-06-05T07:45:35Z</time>
      </trkpt>
      <trkpt lat="48.80422" lon="2.63004">
        <ele>109</ele>
        <time>2016-06-05T07:45:38Z</time>
      </trkpt>
      <trkpt lat="48.80429" lon="2.63013">
        <ele>109</ele>
        <time>2016-06-05T07:45:44Z</time>
      </trkpt>
      <trkpt lat="48.80431" lon="2.63028">
        <ele>109</ele>
        <time>2016-06-05T07:45:52Z</time>
      </trkpt>
      <trkpt lat="48.80432" lon="2.63044">
        <ele>109</ele>
        <time>2016-06-05T07:45:58Z</time>
      </trkpt>
      <trkpt lat="48.80432" lon="2.63053">
        <ele>109</ele>
        <time>2016-06-05T07:46:02Z</time>
      </trkpt>
      <trkpt lat="48.80433" lon="2.6306">
        <ele>110</ele>
        <time>2016-06-05T07:46:08Z</time>
      </trkpt>
      <trkpt lat="48.80437" lon="2.63063">
        <ele>110</ele>
        <time>2016-06-05T07:46:11Z</time>
      </trkpt>
      <trkpt lat="48.80439" lon="2.63065">
        <ele>111</ele>
        <time>2016-06-05T07:46:13Z</time>
      </trkpt>
      <trkpt lat="48.80442" lon="2.63072">
        <ele>111</ele>
        <time>2016-06-05T07:46:16Z</time>
      </trkpt>
      <trkpt lat="48.80442" lon="2.6308">
        <ele>110</ele>
        <time>2016-06-05T07:46:20Z</time>
      </trkpt>
      <trkpt lat="48.80442" lon="2.63089">
        <ele>110</ele>
        <time>2016-06-05T07:46:25Z</time>
      </trkpt>
      <trkpt lat="48.80439" lon="2.63099">
        <ele>111</ele>
        <time>2016-06-05T07:46:42Z</time>
      </trkpt>
      <trkpt lat="48.80442" lon="2.63116">
        <ele>111</ele>
        <time>2016-06-05T07:47:23Z</time>
      </trkpt>
      <trkpt lat="48.80438" lon="2.63129">
        <ele>112</ele>
        <time>2016-06-05T07:47:28Z</time>
      </trkpt>
      <trkpt lat="48.80436" lon="2.63143">
        <ele>112</ele>
        <time>2016-06-05T07:47:34Z</time>
      </trkpt>
      <trkpt lat="48.8044" lon="2.63174">
        <ele>111</ele>
        <time>2016-06-05T07:48:13Z</time>
      </trkpt>
      <trkpt lat="48.80445" lon="2.63186">
        <ele>110</ele>
        <time>2016-06-05T07:48:20Z</time>
      </trkpt>
      <trkpt lat="48.80458" lon="2.63226">
        <ele>110</ele>
        <time>2016-06-05T07:48:36Z</time>
      </trkpt>
      <trkpt lat="48.80466" lon="2.63253">
        <ele>112</ele>
        <time>2016-06-05T07:48:52Z</time>
      </trkpt>
      <trkpt lat="48.8047" lon="2.63267">
        <ele>111</ele>
        <time>2016-06-05T07:49:02Z</time>
      </trkpt>
      <trkpt lat="48.80469" lon="2.63281">
        <ele>110</ele>
        <time>2016-06-05T07:49:11Z</time>
      </trkpt>
      <trkpt lat="48.80477" lon="2.63289">
        <ele>111</ele>
        <time>2016-06-05T07:49:16Z</time>
      </trkpt>
      <trkpt lat="48.80472" lon="2.63286">
        <ele>111</ele>
        <time>2016-06-05T07:49:41Z</time>
      </trkpt>
      <trkpt lat="48.80461" lon="2.63262">
        <ele>111</ele>
        <time>2016-06-05T07:49:58Z</time>
      </trkpt>
      <trkpt lat="48.80453" lon="2.63254">
        <ele>112</ele>
        <time>2016-06-05T07:50:07Z</time>
      </trkpt>
      <trkpt lat="48.80457" lon="2.6324">
        <ele>112</ele>
        <time>2016-06-05T07:50:15Z</time>
      </trkpt>
      <trkpt lat="48.80464" lon="2.63231">
        <ele>113</ele>
        <time>2016-06-05T07:50:22Z</time>
      </trkpt>
      <trkpt lat="48.80479" lon="2.63215">
        <ele>111</ele>
        <time>2016-06-05T07:50:36Z</time>
      </trkpt>
      <trkpt lat="48.80509" lon="2.63221">
        <ele>111</ele>
        <time>2016-06-05T07:51:04Z</time>
      </trkpt>
      <trkpt lat="48.80519" lon="2.6322">
        <ele>113</ele>
        <time>2016-06-05T07:51:12Z</time>
      </trkpt>
      <trkpt lat="48.80538" lon="2.63222">
        <ele>113</ele>
        <time>2016-06-05T07:51:30Z</time>
      </trkpt>
      <trkpt lat="48.80557" lon="2.63219">
        <ele>112</ele>
        <time>2016-06-05T07:51:44Z</time>
      </trkpt>
      <trkpt lat="48.80586" lon="2.63227">
        <ele>112</ele>
        <time>2016-06-05T07:52:22Z</time>
      </trkpt>
      <trkpt lat="48.80591" lon="2.63235">
        <ele>112</ele>
        <time>2016-06-05T07:52:55Z</time>
      </trkpt>
      <trkpt lat="48.80596" lon="2.63236">
        <ele>112</ele>
        <time>2016-06-05T07:53:53Z</time>
      </trkpt>
      <trkpt lat="48.80609" lon="2.63236">
        <ele>112</ele>
        <time>2016-06-05T07:54:11Z</time>
      </trkpt>
      <trkpt lat="48.80616" lon="2.63247">
        <ele>111</ele>
        <time>2016-06-05T07:54:42Z</time>
      </trkpt>
      <trkpt lat="48.80643" lon="2.63291">
        <ele>112</ele>
        <time>2016-06-05T07:55:09Z</time>
      </trkpt>
      <trkpt lat="48.80648" lon="2.63304">
        <ele>112</ele>
        <time>2016-06-05T07:55:16Z</time>
      </trkpt>
      <trkpt lat="48.80654" lon="2.63314">
        <ele>112</ele>
        <time>2016-06-05T07:55:21Z</time>
      </trkpt>
      <trkpt lat="48.80655" lon="2.63328">
        <ele>112</ele>
        <time>2016-06-05T07:55:35Z</time>
      </trkpt>
      <trkpt lat="48.80661" lon="2.63338">
        <ele>112</ele>
        <time>2016-06-05T07:55:44Z</time>
      </trkpt>
      <trkpt lat="48.80676" lon="2.63357">
        <ele>112</ele>
        <time>2016-06-05T07:56:01Z</time>
      </trkpt>
      <trkpt lat="48.80683" lon="2.63363">
        <ele>111</ele>
        <time>2016-06-05T07:56:20Z</time>
      </trkpt>
      <trkpt lat="48.80703" lon="2.63402">
        <ele>111</ele>
        <time>2016-06-05T07:56:58Z</time>
      </trkpt>
      <trkpt lat="48.80708" lon="2.63414">
        <ele>112</ele>
        <time>2016-06-05T07:57:26Z</time>
      </trkpt>
      <trkpt lat="48.80713" lon="2.63433">
        <ele>112</ele>
        <time>2016-06-05T07:58:14Z</time>
      </trkpt>
      <trkpt lat="48.80725" lon="2.63456">
        <ele>109</ele>
        <time>2016-06-05T07:58:27Z</time>
      </trkpt>
      <trkpt lat="48.8074" lon="2.63473">
        <ele>109</ele>
        <time>2016-06-05T07:58:38Z</time>
      </trkpt>
      <trkpt lat="48.80747" lon="2.63484">
        <ele>109</ele>
        <time>2016-06-05T07:58:45Z</time>
      </trkpt>
      <trkpt lat="48.80748" lon="2.63499">
        <ele>110</ele>
        <time>2016-06-05T07:59:00Z</time>
      </trkpt>
      <trkpt lat="48.80756" lon="2.6351">
        <ele>110</ele>
        <time>2016-06-05T07:59:08Z</time>
      </trkpt>
      <trkpt lat="48.80772" lon="2.63524">
        <ele>109</ele>
        <time>2016-06-05T07:59:41Z</time>
      </trkpt>
      <trkpt lat="48.80774" lon="2.63531">
        <ele>109</ele>
        <time>2016-06-05T08:00:05Z</time>
      </trkpt>
      <trkpt lat="48.80778" lon="2.63545">
        <ele>110</ele>
        <time>2016-06-05T08:00:11Z</time>
      </trkpt>
      <trkpt lat="48.80782" lon="2.63559">
        <ele>110</ele>
        <time>2016-06-05T08:00:17Z</time>
      </trkpt>
      <trkpt lat="48.80784" lon="2.63567">
        <ele>109</ele>
        <time>2016-06-05T08:00:30Z</time>
      </trkpt>
      <trkpt lat="48.80791" lon="2.63577">
        <ele>109</ele>
        <time>2016-06-05T08:00:44Z</time>
      </trkpt>
      <trkpt lat="48.80798" lon="2.63597">
        <ele>110</ele>
        <time>2016-06-05T08:01:03Z</time>
      </trkpt>
      <trkpt lat="48.80806" lon="2.63605">
        <ele>110</ele>
        <time>2016-06-05T08:01:12Z</time>
      </trkpt>
      <trkpt lat="48.80814" lon="2.63614">
        <ele>110</ele>
        <time>2016-06-05T08:01:17Z</time>
      </trkpt>
      <trkpt lat="48.80829" lon="2.63637">
        <ele>109</ele>
        <time>2016-06-05T08:01:32Z</time>
      </trkpt>
      <trkpt lat="48.80835" lon="2.63646">
        <ele>110</ele>
        <time>2016-06-05T08:01:52Z</time>
      </trkpt>
      <trkpt lat="48.80849" lon="2.63675">
        <ele>111</ele>
        <time>2016-06-05T08:02:18Z</time>
      </trkpt>
      <trkpt lat="48.80853" lon="2.63688">
        <ele>111</ele>
        <time>2016-06-05T08:02:26Z</time>
      </trkpt>
      <trkpt lat="48.80874" lon="2.6373">
        <ele>109</ele>
        <time>2016-06-05T08:02:56Z</time>
      </trkpt>
      <trkpt lat="48.80875" lon="2.63737">
        <ele>109</ele>
        <time>2016-06-05T08:03:00Z</time>
      </trkpt>
      <trkpt lat="48.80883" lon="2.63744">
        <ele>110</ele>
        <time>2016-06-05T08:03:11Z</time>
      </trkpt>
      <trkpt lat="48.80889" lon="2.63755">
        <ele>110</ele>
        <time>2016-06-05T08:03:28Z</time>
      </trkpt>
      <trkpt lat="48.80893" lon="2.63758">
        <ele>110</ele>
        <time>2016-06-05T08:03:31Z</time>
      </trkpt>
      <trkpt lat="48.80895" lon="2.63765">
        <ele>110</ele>
        <time>2016-06-05T08:03:34Z</time>
      </trkpt>
      <trkpt lat="48.80899" lon="2.6377">
        <ele>110</ele>
        <time>2016-06-05T08:03:40Z</time>
      </trkpt>
      <trkpt lat="48.80901" lon="2.63776">
        <ele>110</ele>
        <time>2016-06-05T08:03:45Z</time>
      </trkpt>
      <trkpt lat="48.80909" lon="2.6379">
        <ele>110</ele>
        <time>2016-06-05T08:04:04Z</time>
      </trkpt>
      <trkpt lat="48.80911" lon="2.63804">
        <ele>109</ele>
        <time>2016-06-05T08:04:12Z</time>
      </trkpt>
      <trkpt lat="48.80918" lon="2.63814">
        <ele>110</ele>
        <time>2016-06-05T08:04:22Z</time>
      </trkpt>
      <trkpt lat="48.80925" lon="2.63826">
        <ele>109</ele>
        <time>2016-06-05T08:04:29Z</time>
      </trkpt>
      <trkpt lat="48.80926" lon="2.63833">
        <ele>107</ele>
        <time>2016-06-05T08:04:48Z</time>
      </trkpt>
      <trkpt lat="48.80927" lon="2.63839">
        <ele>107</ele>
        <time>2016-06-05T08:05:25Z</time>
      </trkpt>
      <trkpt lat="48.80931" lon="2.63842">
        <ele>108</ele>
        <time>2016-06-05T08:05:40Z</time>
      </trkpt>
      <trkpt lat="48.80936" lon="2.63846">
        <ele>108</ele>
        <time>2016-06-05T08:05:43Z</time>
      </trkpt>
      <trkpt lat="48.80939" lon="2.63851">
        <ele>109</ele>
        <time>2016-06-05T08:05:48Z</time>
      </trkpt>
      <trkpt lat="48.8095" lon="2.63879">
        <ele>110</ele>
        <time>2016-06-05T08:07:21Z</time>
      </trkpt>
      <trkpt lat="48.80957" lon="2.6389">
        <ele>109</ele>
        <time>2016-06-05T08:09:18Z</time>
      </trkpt>
      <trkpt lat="48.80973" lon="2.63907">
        <ele>110</ele>
        <time>2016-06-05T08:09:35Z</time>
      </trkpt>
      <trkpt lat="48.80985" lon="2.63929">
        <ele>112</ele>
        <time>2016-06-05T08:09:49Z</time>
      </trkpt>
      <trkpt lat="48.80989" lon="2.63943">
        <ele>112</ele>
        <time>2016-06-05T08:09:56Z</time>
      </trkpt>
      <trkpt lat="48.80992" lon="2.63948">
        <ele>112</ele>
        <time>2016-06-05T08:09:58Z</time>
      </trkpt>
      <trkpt lat="48.80994" lon="2.63963">
        <ele>111</ele>
        <time>2016-06-05T08:10:06Z</time>
      </trkpt>
      <trkpt lat="48.80994" lon="2.64009">
        <ele>107</ele>
        <time>2016-06-05T08:10:49Z</time>
      </trkpt>
      <trkpt lat="48.80987" lon="2.64018">
        <ele>107</ele>
        <time>2016-06-05T08:11:05Z</time>
      </trkpt>
      <trkpt lat="48.80992" lon="2.64033">
        <ele>107</ele>
        <time>2016-06-05T08:11:34Z</time>
      </trkpt>
      <trkpt lat="48.80987" lon="2.64046">
        <ele>105</ele>
        <time>2016-06-05T08:11:45Z</time>
      </trkpt>
      <trkpt lat="48.80987" lon="2.64076">
        <ele>104</ele>
        <time>2016-06-05T08:12:01Z</time>
      </trkpt>
      <trkpt lat="48.8099" lon="2.64083">
        <ele>103</ele>
        <time>2016-06-05T08:12:05Z</time>
      </trkpt>
      <trkpt lat="48.80989" lon="2.64113">
        <ele>103</ele>
        <time>2016-06-05T08:12:20Z</time>
      </trkpt>
      <trkpt lat="48.80989" lon="2.6412">
        <ele>103</ele>
        <time>2016-06-05T08:12:24Z</time>
      </trkpt>
      <trkpt lat="48.80993" lon="2.64129">
        <ele>103</ele>
        <time>2016-06-05T08:12:34Z</time>
      </trkpt>
      <trkpt lat="48.80993" lon="2.64138">
        <ele>104</ele>
        <time>2016-06-05T08:12:43Z</time>
      </trkpt>
      <trkpt lat="48.80991" lon="2.64142">
        <ele>104</ele>
        <time>2016-06-05T08:12:46Z</time>
      </trkpt>
      <trkpt lat="48.80988" lon="2.64146">
        <ele>104</ele>
        <time>2016-06-05T08:12:48Z</time>
      </trkpt>
      <trkpt lat="48.80987" lon="2.64156">
        <ele>104</ele>
        <time>2016-06-05T08:12:53Z</time>
      </trkpt>
      <trkpt lat="48.80983" lon="2.64163">
        <ele>104</ele>
        <time>2016-06-05T08:12:57Z</time>
      </trkpt>
      <trkpt lat="48.80975" lon="2.64186">
        <ele>104</ele>
        <time>2016-06-05T08:13:12Z</time>
      </trkpt>
      <trkpt lat="48.80971" lon="2.6419">
        <ele>104</ele>
        <time>2016-06-05T08:13:16Z</time>
      </trkpt>
      <trkpt lat="48.80965" lon="2.6421">
        <ele>106</ele>
        <time>2016-06-05T08:13:29Z</time>
      </trkpt>
      <trkpt lat="48.80939" lon="2.64256">
        <ele>105</ele>
        <time>2016-06-05T08:14:02Z</time>
      </trkpt>
      <trkpt lat="48.80919" lon="2.64282">
        <ele>106</ele>
        <time>2016-06-05T08:14:22Z</time>
      </trkpt>
      <trkpt lat="48.80905" lon="2.64306">
        <ele>106</ele>
        <time>2016-06-05T08:14:39Z</time>
      </trkpt>
      <trkpt lat="48.80906" lon="2.64314">
        <ele>106</ele>
        <time>2016-06-05T08:14:44Z</time>
      </trkpt>
      <trkpt lat="48.80903" lon="2.6432">
        <ele>106</ele>
        <time>2016-06-05T08:14:49Z</time>
      </trkpt>
      <trkpt lat="48.80897" lon="2.6433">
        <ele>107</ele>
        <time>2016-06-05T08:15:01Z</time>
      </trkpt>
      <trkpt lat="48.80884" lon="2.64339">
        <ele>106</ele>
        <time>2016-06-05T08:15:14Z</time>
      </trkpt>
      <trkpt lat="48.80876" lon="2.64346">
        <ele>106</ele>
        <time>2016-06-05T08:15:18Z</time>
      </trkpt>
      <trkpt lat="48.80874" lon="2.64353">
        <ele>106</ele>
        <time>2016-06-05T08:15:21Z</time>
      </trkpt>
      <trkpt lat="48.80869" lon="2.64367">
        <ele>107</ele>
        <time>2016-06-05T08:15:30Z</time>
      </trkpt>
      <trkpt lat="48.80858" lon="2.64407">
        <ele>107</ele>
        <time>2016-06-05T08:15:55Z</time>
      </trkpt>
      <trkpt lat="48.80856" lon="2.64436">
        <ele>109</ele>
        <time>2016-06-05T08:16:15Z</time>
      </trkpt>
      <trkpt lat="48.8085" lon="2.64447">
        <ele>109</ele>
        <time>2016-06-05T08:16:24Z</time>
      </trkpt>
      <trkpt lat="48.80826" lon="2.64471">
        <ele>109</ele>
        <time>2016-06-05T08:16:51Z</time>
      </trkpt>
      <trkpt lat="48.80821" lon="2.6447">
        <ele>108</ele>
        <time>2016-06-05T08:17:14Z</time>
      </trkpt>
      <trkpt lat="48.80814" lon="2.6448">
        <ele>108</ele>
        <time>2016-06-05T08:18:00Z</time>
      </trkpt>
      <trkpt lat="48.80807" lon="2.6449">
        <ele>109</ele>
        <time>2016-06-05T08:18:06Z</time>
      </trkpt>
      <trkpt lat="48.80802" lon="2.64502">
        <ele>109</ele>
        <time>2016-06-05T08:18:13Z</time>
      </trkpt>
      <trkpt lat="48.80799" lon="2.64516">
        <ele>110</ele>
        <time>2016-06-05T08:18:23Z</time>
      </trkpt>
      <trkpt lat="48.80786" lon="2.64537">
        <ele>111</ele>
        <time>2016-06-05T08:18:41Z</time>
      </trkpt>
      <trkpt lat="48.80781" lon="2.64551">
        <ele>111</ele>
        <time>2016-06-05T08:18:49Z</time>
      </trkpt>
      <trkpt lat="48.80755" lon="2.64591">
        <ele>111</ele>
        <time>2016-06-05T08:19:21Z</time>
      </trkpt>
      <trkpt lat="48.80749" lon="2.64603">
        <ele>111</ele>
        <time>2016-06-05T08:19:32Z</time>
      </trkpt>
      <trkpt lat="48.80736" lon="2.64624">
        <ele>112</ele>
        <time>2016-06-05T08:19:47Z</time>
      </trkpt>
      <trkpt lat="48.80723" lon="2.64651">
        <ele>110</ele>
        <time>2016-06-05T08:20:21Z</time>
      </trkpt>
      <trkpt lat="48.80717" lon="2.64663">
        <ele>110</ele>
        <time>2016-06-05T08:20:27Z</time>
      </trkpt>
      <trkpt lat="48.80693" lon="2.64692">
        <ele>109</ele>
        <time>2016-06-05T08:20:55Z</time>
      </trkpt>
      <trkpt lat="48.80689" lon="2.64705">
        <ele>109</ele>
        <time>2016-06-05T08:21:03Z</time>
      </trkpt>
      <trkpt lat="48.80681" lon="2.64711">
        <ele>110</ele>
        <time>2016-06-05T08:21:11Z</time>
      </trkpt>
      <trkpt lat="48.80682" lon="2.64726">
        <ele>110</ele>
        <time>2016-06-05T08:21:19Z</time>
      </trkpt>
      <trkpt lat="48.80678" lon="2.64738">
        <ele>111</ele>
        <time>2016-06-05T08:21:32Z</time>
      </trkpt>
      <trkpt lat="48.80672" lon="2.6475">
        <ele>111</ele>
        <time>2016-06-05T08:21:38Z</time>
      </trkpt>
      <trkpt lat="48.80663" lon="2.64755">
        <ele>112</ele>
        <time>2016-06-05T08:21:44Z</time>
      </trkpt>
      <trkpt lat="48.80657" lon="2.64766">
        <ele>111</ele>
        <time>2016-06-05T08:21:50Z</time>
      </trkpt>
      <trkpt lat="48.80652" lon="2.64778">
        <ele>110</ele>
        <time>2016-06-05T08:21:59Z</time>
      </trkpt>
      <trkpt lat="48.80645" lon="2.64788">
        <ele>110</ele>
        <time>2016-06-05T08:22:05Z</time>
      </trkpt>
      <trkpt lat="48.80626" lon="2.64819">
        <ele>107</ele>
        <time>2016-06-05T08:22:28Z</time>
      </trkpt>
      <trkpt lat="48.80619" lon="2.6483">
        <ele>107</ele>
        <time>2016-06-05T08:22:37Z</time>
      </trkpt>
      <trkpt lat="48.80609" lon="2.64854">
        <ele>109</ele>
        <time>2016-06-05T08:22:51Z</time>
      </trkpt>
      <trkpt lat="48.80585" lon="2.64902">
        <ele>110</ele>
        <time>2016-06-05T08:23:27Z</time>
      </trkpt>
      <trkpt lat="48.80571" lon="2.64921">
        <ele>110</ele>
        <time>2016-06-05T08:23:40Z</time>
      </trkpt>
      <trkpt lat="48.80542" lon="2.64957">
        <ele>112</ele>
        <time>2016-06-05T08:24:11Z</time>
      </trkpt>
      <trkpt lat="48.80528" lon="2.64977">
        <ele>112</ele>
        <time>2016-06-05T08:24:29Z</time>
      </trkpt>
      <trkpt lat="48.80517" lon="2.65016">
        <ele>114</ele>
        <time>2016-06-05T08:24:48Z</time>
      </trkpt>
      <trkpt lat="48.80513" lon="2.65028">
        <ele>113</ele>
        <time>2016-06-05T08:25:02Z</time>
      </trkpt>
      <trkpt lat="48.80493" lon="2.65063">
        <ele>113</ele>
        <time>2016-06-05T08:25:33Z</time>
      </trkpt>
      <trkpt lat="48.80482" lon="2.65087">
        <ele>112</ele>
        <time>2016-06-05T08:25:49Z</time>
      </trkpt>
      <trkpt lat="48.80474" lon="2.65095">
        <ele>113</ele>
        <time>2016-06-05T08:25:56Z</time>
      </trkpt>
      <trkpt lat="48.80463" lon="2.6512">
        <ele>114</ele>
        <time>2016-06-05T08:26:14Z</time>
      </trkpt>
      <trkpt lat="48.80456" lon="2.6513">
        <ele>114</ele>
        <time>2016-06-05T08:26:22Z</time>
      </trkpt>
      <trkpt lat="48.80442" lon="2.65152">
        <ele>115</ele>
        <time>2016-06-05T08:26:39Z</time>
      </trkpt>
      <trkpt lat="48.80437" lon="2.6516">
        <ele>115</ele>
        <time>2016-06-05T08:26:52Z</time>
      </trkpt>
      <trkpt lat="48.80435" lon="2.65167">
        <ele>114</ele>
        <time>2016-06-05T08:27:03Z</time>
      </trkpt>
      <trkpt lat="48.80432" lon="2.65171">
        <ele>113</ele>
        <time>2016-06-05T08:27:12Z</time>
      </trkpt>
      <trkpt lat="48.80429" lon="2.65164">
        <ele>112</ele>
        <time>2016-06-05T08:29:01Z</time>
      </trkpt>
      <trkpt lat="48.80432" lon="2.65164">
        <ele>112</ele>
        <time>2016-06-05T08:29:41Z</time>
      </trkpt>
      <trkpt lat="48.80434" lon="2.65168">
        <ele>112</ele>
        <time>2016-06-05T08:29:49Z</time>
      </trkpt>
      <trkpt lat="48.8043" lon="2.65173">
        <ele>112</ele>
        <time>2016-06-05T08:30:02Z</time>
      </trkpt>
      <trkpt lat="48.80429" lon="2.6518">
        <ele>113</ele>
        <time>2016-06-05T08:30:07Z</time>
      </trkpt>
      <trkpt lat="48.80417" lon="2.65195">
        <ele>114</ele>
        <time>2016-06-05T08:30:19Z</time>
      </trkpt>
      <trkpt lat="48.80396" lon="2.65229">
        <ele>113</ele>
        <time>2016-06-05T08:30:45Z</time>
      </trkpt>
      <trkpt lat="48.80391" lon="2.65237">
        <ele>113</ele>
        <time>2016-06-05T08:30:57Z</time>
      </trkpt>
      <trkpt lat="48.80387" lon="2.65243">
        <ele>114</ele>
        <time>2016-06-05T08:31:01Z</time>
      </trkpt>
      <trkpt lat="48.80361" lon="2.65295">
        <ele>115</ele>
        <time>2016-06-05T08:31:35Z</time>
      </trkpt>
      <trkpt lat="48.80359" lon="2.65302">
        <ele>116</ele>
        <time>2016-06-05T08:31:39Z</time>
      </trkpt>
      <trkpt lat="48.80356" lon="2.65308">
        <ele>116</ele>
        <time>2016-06-05T08:31:43Z</time>
      </trkpt>
      <trkpt lat="48.80344" lon="2.65324">
        <ele>116</ele>
        <time>2016-06-05T08:31:55Z</time>
      </trkpt>
      <trkpt lat="48.80341" lon="2.65331">
        <ele>116</ele>
        <time>2016-06-05T08:32:00Z</time>
      </trkpt>
      <trkpt lat="48.80335" lon="2.65345">
        <ele>118</ele>
        <time>2016-06-05T08:32:09Z</time>
      </trkpt>
      <trkpt lat="48.80331" lon="2.65351">
        <ele>119</ele>
        <time>2016-06-05T08:32:13Z</time>
      </trkpt>
      <trkpt lat="48.80328" lon="2.65355">
        <ele>119</ele>
        <time>2016-06-05T08:32:16Z</time>
      </trkpt>
      <trkpt lat="48.80316" lon="2.65369">
        <ele>116</ele>
        <time>2016-06-05T08:32:28Z</time>
      </trkpt>
      <trkpt lat="48.80314" lon="2.65377">
        <ele>115</ele>
        <time>2016-06-05T08:32:32Z</time>
      </trkpt>
      <trkpt lat="48.80288" lon="2.65429">
        <ele>113</ele>
        <time>2016-06-05T08:33:02Z</time>
      </trkpt>
      <trkpt lat="48.80284" lon="2.65434">
        <ele>113</ele>
        <time>2016-06-05T08:33:06Z</time>
      </trkpt>
      <trkpt lat="48.80276" lon="2.65442">
        <ele>113</ele>
        <time>2016-06-05T08:33:13Z</time>
      </trkpt>
      <trkpt lat="48.80259" lon="2.65472">
        <ele>112</ele>
        <time>2016-06-05T08:33:31Z</time>
      </trkpt>
      <trkpt lat="48.80257" lon="2.65478">
        <ele>112</ele>
        <time>2016-06-05T08:33:34Z</time>
      </trkpt>
      <trkpt lat="48.80256" lon="2.6549">
        <ele>112</ele>
        <time>2016-06-05T08:33:47Z</time>
      </trkpt>
      <trkpt lat="48.80252" lon="2.65497">
        <ele>112</ele>
        <time>2016-06-05T08:33:59Z</time>
      </trkpt>
      <trkpt lat="48.80249" lon="2.65503">
        <ele>111</ele>
        <time>2016-06-05T08:34:12Z</time>
      </trkpt>
      <trkpt lat="48.80245" lon="2.65508">
        <ele>111</ele>
        <time>2016-06-05T08:34:20Z</time>
      </trkpt>
      <trkpt lat="48.80247" lon="2.65516">
        <ele>113</ele>
        <time>2016-06-05T08:34:46Z</time>
      </trkpt>
      <trkpt lat="48.80247" lon="2.65523">
        <ele>114</ele>
        <time>2016-06-05T08:34:52Z</time>
      </trkpt>
      <trkpt lat="48.80246" lon="2.65527">
        <ele>114</ele>
        <time>2016-06-05T08:34:59Z</time>
      </trkpt>
      <trkpt lat="48.80243" lon="2.65533">
        <ele>115</ele>
        <time>2016-06-05T08:35:03Z</time>
      </trkpt>
      <trkpt lat="48.80242" lon="2.65536">
        <ele>115</ele>
        <time>2016-06-05T08:35:09Z</time>
      </trkpt>
      <trkpt lat="48.80238" lon="2.65593">
        <ele>115</ele>
        <time>2016-06-05T08:35:44Z</time>
      </trkpt>
      <trkpt lat="48.80233" lon="2.65605">
        <ele>114</ele>
        <time>2016-06-05T08:36:01Z</time>
      </trkpt>
      <trkpt lat="48.80233" lon="2.65623">
        <ele>114</ele>
        <time>2016-06-05T08:36:28Z</time>
      </trkpt>
      <trkpt lat="48.80234" lon="2.6563">
        <ele>114</ele>
        <time>2016-06-05T08:36:44Z</time>
      </trkpt>
      <trkpt lat="48.80239" lon="2.65643">
        <ele>114</ele>
        <time>2016-06-05T08:36:51Z</time>
      </trkpt>
      <trkpt lat="48.80239" lon="2.6565">
        <ele>113</ele>
        <time>2016-06-05T08:37:12Z</time>
      </trkpt>
      <trkpt lat="48.80238" lon="2.65668">
        <ele>113</ele>
        <time>2016-06-05T08:37:40Z</time>
      </trkpt>
      <trkpt lat="48.80236" lon="2.6567">
        <ele>113</ele>
        <time>2016-06-05T08:37:46Z</time>
      </trkpt>
      <trkpt lat="48.80233" lon="2.65679">
        <ele>113</ele>
        <time>2016-06-05T08:37:58Z</time>
      </trkpt>
      <trkpt lat="48.80233" lon="2.65693">
        <ele>114</ele>
        <time>2016-06-05T08:38:05Z</time>
      </trkpt>
      <trkpt lat="48.80228" lon="2.65739">
        <ele>115</ele>
        <time>2016-06-05T08:38:29Z</time>
      </trkpt>
      <trkpt lat="48.80226" lon="2.65754">
        <ele>115</ele>
        <time>2016-06-05T08:38:37Z</time>
      </trkpt>
      <trkpt lat="48.80225" lon="2.6577">
        <ele>116</ele>
        <time>2016-06-05T08:38:46Z</time>
      </trkpt>
      <trkpt lat="48.80225" lon="2.65779">
        <ele>116</ele>
        <time>2016-06-05T08:38:50Z</time>
      </trkpt>
      <trkpt lat="48.80224" lon="2.65787">
        <ele>116</ele>
        <time>2016-06-05T08:38:55Z</time>
      </trkpt>
      <trkpt lat="48.80223" lon="2.65808">
        <ele>117</ele>
        <time>2016-06-05T08:39:14Z</time>
      </trkpt>
      <trkpt lat="48.80221" lon="2.65814">
        <ele>117</ele>
        <time>2016-06-05T08:39:40Z</time>
      </trkpt>
      <trkpt lat="48.8022" lon="2.65823">
        <ele>116</ele>
        <time>2016-06-05T08:39:53Z</time>
      </trkpt>
      <trkpt lat="48.80221" lon="2.65828">
        <ele>115</ele>
        <time>2016-06-05T08:40:00Z</time>
      </trkpt>
      <trkpt lat="48.8022" lon="2.65835">
        <ele>115</ele>
        <time>2016-06-05T08:40:05Z</time>
      </trkpt>
      <trkpt lat="48.8022" lon="2.65843">
        <ele>115</ele>
        <time>2016-06-05T08:40:14Z</time>
      </trkpt>
      <trkpt lat="48.8022" lon="2.65864">
        <ele>115</ele>
        <time>2016-06-05T08:40:33Z</time>
      </trkpt>
      <trkpt lat="48.80218" lon="2.6591">
        <ele>116</ele>
        <time>2016-06-05T08:41:05Z</time>
      </trkpt>
      <trkpt lat="48.80216" lon="2.65944">
        <ele>116</ele>
        <time>2016-06-05T08:41:32Z</time>
      </trkpt>
      <trkpt lat="48.80213" lon="2.6595">
        <ele>116</ele>
        <time>2016-06-05T08:41:37Z</time>
      </trkpt>
      <trkpt lat="48.80212" lon="2.65958">
        <ele>116</ele>
        <time>2016-06-05T08:41:43Z</time>
      </trkpt>
      <trkpt lat="48.80214" lon="2.65967">
        <ele>116</ele>
        <time>2016-06-05T08:41:54Z</time>
      </trkpt>
      <trkpt lat="48.80213" lon="2.65977">
        <ele>116</ele>
        <time>2016-06-05T08:42:06Z</time>
      </trkpt>
      <trkpt lat="48.80211" lon="2.66041">
        <ele>116</ele>
        <time>2016-06-05T08:42:36Z</time>
      </trkpt>
      <trkpt lat="48.80212" lon="2.66054">
        <ele>116</ele>
        <time>2016-06-05T08:42:41Z</time>
      </trkpt>
      <trkpt lat="48.80205" lon="2.66082">
        <ele>116</ele>
        <time>2016-06-05T08:42:55Z</time>
      </trkpt>
      <trkpt lat="48.80209" lon="2.66102">
        <ele>116</ele>
        <time>2016-06-05T08:43:05Z</time>
      </trkpt>
      <trkpt lat="48.80208" lon="2.66109">
        <ele>116</ele>
        <time>2016-06-05T08:43:08Z</time>
      </trkpt>
      <trkpt lat="48.8021" lon="2.66116">
        <ele>116</ele>
        <time>2016-06-05T08:43:12Z</time>
      </trkpt>
      <trkpt lat="48.80204" lon="2.6613">
        <ele>116</ele>
        <time>2016-06-05T08:43:22Z</time>
      </trkpt>
      <trkpt lat="48.80201" lon="2.66134">
        <ele>116</ele>
        <time>2016-06-05T08:43:26Z</time>
      </trkpt>
      <trkpt lat="48.802" lon="2.66142">
        <ele>116</ele>
        <time>2016-06-05T08:43:30Z</time>
      </trkpt>
      <trkpt lat="48.80208" lon="2.66208">
        <ele>116</ele>
        <time>2016-06-05T08:44:02Z</time>
      </trkpt>
      <trkpt lat="48.8021" lon="2.66221">
        <ele>116</ele>
        <time>2016-06-05T08:44:08Z</time>
      </trkpt>
      <trkpt lat="48.80208" lon="2.66236">
        <ele>116</ele>
        <time>2016-06-05T08:44:18Z</time>
      </trkpt>
      <trkpt lat="48.80201" lon="2.66246">
        <ele>116</ele>
        <time>2016-06-05T08:44:25Z</time>
      </trkpt>
      <trkpt lat="48.80194" lon="2.66303">
        <ele>116</ele>
        <time>2016-06-05T08:44:56Z</time>
      </trkpt>
      <trkpt lat="48.80203" lon="2.66327">
        <ele>116</ele>
        <time>2016-06-05T08:45:08Z</time>
      </trkpt>
      <trkpt lat="48.80202" lon="2.66342">
        <ele>116</ele>
        <time>2016-06-05T08:45:17Z</time>
      </trkpt>
      <trkpt lat="48.80197" lon="2.66345">
        <ele>115</ele>
        <time>2016-06-05T08:45:25Z</time>
      </trkpt>
      <trkpt lat="48.80154" lon="2.66333">
        <ele>115</ele>
        <time>2016-06-05T08:46:01Z</time>
      </trkpt>
      <trkpt lat="48.80147" lon="2.66328">
        <ele>114</ele>
        <time>2016-06-05T08:46:11Z</time>
      </trkpt>
      <trkpt lat="48.80118" lon="2.66328">
        <ele>114</ele>
        <time>2016-06-05T08:46:33Z</time>
      </trkpt>
      <trkpt lat="48.80115" lon="2.66322">
        <ele>114</ele>
        <time>2016-06-05T08:46:41Z</time>
      </trkpt>
      <trkpt lat="48.80111" lon="2.66322">
        <ele>114</ele>
        <time>2016-06-05T08:46:44Z</time>
      </trkpt>
      <trkpt lat="48.80084" lon="2.66318">
        <ele>114</ele>
        <time>2016-06-05T08:47:19Z</time>
      </trkpt>
      <trkpt lat="48.80076" lon="2.66311">
        <ele>114</ele>
        <time>2016-06-05T08:47:26Z</time>
      </trkpt>
      <trkpt lat="48.80057" lon="2.66307">
        <ele>114</ele>
        <time>2016-06-05T08:47:38Z</time>
      </trkpt>
      <trkpt lat="48.80054" lon="2.66316">
        <ele>114</ele>
        <time>2016-06-05T08:47:53Z</time>
      </trkpt>
      <trkpt lat="48.80053" lon="2.66335">
        <ele>114</ele>
        <time>2016-06-05T08:48:36Z</time>
      </trkpt>
      <trkpt lat="48.80054" lon="2.6637">
        <ele>113</ele>
        <time>2016-06-05T08:49:09Z</time>
      </trkpt>
      <trkpt lat="48.8005" lon="2.6638">
        <ele>113</ele>
        <time>2016-06-05T08:49:22Z</time>
      </trkpt>
      <trkpt lat="48.80049" lon="2.66387">
        <ele>113</ele>
        <time>2016-06-05T08:49:24Z</time>
      </trkpt>
      <trkpt lat="48.8005" lon="2.66396">
        <ele>113</ele>
        <time>2016-06-05T08:50:30Z</time>
      </trkpt>
      <trkpt lat="48.80048" lon="2.6643">
        <ele>114</ele>
        <time>2016-06-05T08:50:46Z</time>
      </trkpt>
      <trkpt lat="48.80045" lon="2.66436">
        <ele>114</ele>
        <time>2016-06-05T08:50:50Z</time>
      </trkpt>
      <trkpt lat="48.80034" lon="2.66494">
        <ele>114</ele>
        <time>2016-06-05T08:51:45Z</time>
      </trkpt>
      <trkpt lat="48.80034" lon="2.66508">
        <ele>114</ele>
        <time>2016-06-05T08:51:58Z</time>
      </trkpt>
      <trkpt lat="48.80028" lon="2.66522">
        <ele>114</ele>
        <time>2016-06-05T08:52:07Z</time>
      </trkpt>
      <trkpt lat="48.80028" lon="2.66552">
        <ele>114</ele>
        <time>2016-06-05T08:52:41Z</time>
      </trkpt>
      <trkpt lat="48.80025" lon="2.66593">
        <ele>113</ele>
        <time>2016-06-05T08:53:26Z</time>
      </trkpt>
      <trkpt lat="48.80013" lon="2.66658">
        <ele>113</ele>
        <time>2016-06-05T08:54:10Z</time>
      </trkpt>
      <trkpt lat="48.80009" lon="2.66663">
        <ele>113</ele>
        <time>2016-06-05T08:54:27Z</time>
      </trkpt>
      <trkpt lat="48.7999" lon="2.66666">
        <ele>113</ele>
        <time>2016-06-05T08:55:08Z</time>
      </trkpt>
      <trkpt lat="48.7998" lon="2.66663">
        <ele>113</ele>
        <time>2016-06-05T08:55:20Z</time>
      </trkpt>
      <trkpt lat="48.79971" lon="2.66667">
        <ele>113</ele>
        <time>2016-06-05T08:55:38Z</time>
      </trkpt>
      <trkpt lat="48.79966" lon="2.6667">
        <ele>114</ele>
        <time>2016-06-05T08:55:46Z</time>
      </trkpt>
      <trkpt lat="48.79962" lon="2.66667">
        <ele>113</ele>
        <time>2016-06-05T08:56:38Z</time>
      </trkpt>
      <trkpt lat="48.79951" lon="2.66672">
        <ele>113</ele>
        <time>2016-06-05T08:56:50Z</time>
      </trkpt>
      <trkpt lat="48.79935" lon="2.66667">
        <ele>113</ele>
        <time>2016-06-05T08:56:59Z</time>
      </trkpt>
      <trkpt lat="48.7993" lon="2.66669">
        <ele>113</ele>
        <time>2016-06-05T08:57:05Z</time>
      </trkpt>
      <trkpt lat="48.79929" lon="2.66673">
        <ele>114</ele>
        <time>2016-06-05T08:57:50Z</time>
      </trkpt>
      <trkpt lat="48.79931" lon="2.66679">
        <ele>114</ele>
        <time>2016-06-05T08:57:53Z</time>
      </trkpt>
      <trkpt lat="48.79931" lon="2.66686">
        <ele>114</ele>
        <time>2016-06-05T08:57:56Z</time>
      </trkpt>
      <trkpt lat="48.79927" lon="2.6669">
        <ele>114</ele>
        <time>2016-06-05T08:58:00Z</time>
      </trkpt>
      <trkpt lat="48.79924" lon="2.66695">
        <ele>114</ele>
        <time>2016-06-05T08:58:10Z</time>
      </trkpt>
      <trkpt lat="48.79924" lon="2.66702">
        <ele>114</ele>
        <time>2016-06-05T08:58:26Z</time>
      </trkpt>
      <trkpt lat="48.7993" lon="2.66731">
        <ele>114</ele>
        <time>2016-06-05T08:58:45Z</time>
      </trkpt>
      <trkpt lat="48.79928" lon="2.66745">
        <ele>114</ele>
        <time>2016-06-05T08:58:51Z</time>
      </trkpt>
      <trkpt lat="48.79926" lon="2.6675">
        <ele>114</ele>
        <time>2016-06-05T08:58:57Z</time>
      </trkpt>
      <trkpt lat="48.79921" lon="2.66785">
        <ele>114</ele>
        <time>2016-06-05T08:59:19Z</time>
      </trkpt>
      <trkpt lat="48.79925" lon="2.66809">
        <ele>114</ele>
        <time>2016-06-05T08:59:33Z</time>
      </trkpt>
      <trkpt lat="48.79924" lon="2.66815">
        <ele>114</ele>
        <time>2016-06-05T08:59:36Z</time>
      </trkpt>
      <trkpt lat="48.79916" lon="2.66822">
        <ele>114</ele>
        <time>2016-06-05T08:59:41Z</time>
      </trkpt>
      <trkpt lat="48.79911" lon="2.66842">
        <ele>114</ele>
        <time>2016-06-05T08:59:49Z</time>
      </trkpt>
      <trkpt lat="48.79908" lon="2.66904">
        <ele>114</ele>
        <time>2016-06-05T09:00:29Z</time>
      </trkpt>
      <trkpt lat="48.79909" lon="2.66939">
        <ele>114</ele>
        <time>2016-06-05T09:00:55Z</time>
      </trkpt>
      <trkpt lat="48.79907" lon="2.66942">
        <ele>115</ele>
        <time>2016-06-05T09:01:47Z</time>
      </trkpt>
      <trkpt lat="48.79906" lon="2.66943">
        <ele>114</ele>
        <time>2016-06-05T09:06:08Z</time>
      </trkpt>
      <trkpt lat="48.79909" lon="2.66948">
        <ele>114</ele>
        <time>2016-06-05T09:07:25Z</time>
      </trkpt>
      <trkpt lat="48.79912" lon="2.66961">
        <ele>114</ele>
        <time>2016-06-05T09:07:38Z</time>
      </trkpt>
      <trkpt lat="48.79905" lon="2.67006">
        <ele>114</ele>
        <time>2016-06-05T09:07:59Z</time>
      </trkpt>
      <trkpt lat="48.79915" lon="2.67046">
        <ele>114</ele>
        <time>2016-06-05T09:08:31Z</time>
      </trkpt>
      <trkpt lat="48.79926" lon="2.6707">
        <ele>114</ele>
        <time>2016-06-05T09:08:46Z</time>
      </trkpt>
      <trkpt lat="48.79924" lon="2.671">
        <ele>115</ele>
        <time>2016-06-05T09:09:08Z</time>
      </trkpt>
      <trkpt lat="48.79939" lon="2.67141">
        <ele>115</ele>
        <time>2016-06-05T09:09:34Z</time>
      </trkpt>
      <trkpt lat="48.79936" lon="2.67154">
        <ele>115</ele>
        <time>2016-06-05T09:09:40Z</time>
      </trkpt>
      <trkpt lat="48.79938" lon="2.67168">
        <ele>115</ele>
        <time>2016-06-05T09:09:50Z</time>
      </trkpt>
      <trkpt lat="48.79937" lon="2.67183">
        <ele>115</ele>
        <time>2016-06-05T09:09:59Z</time>
      </trkpt>
      <trkpt lat="48.7993" lon="2.67191">
        <ele>115</ele>
        <time>2016-06-05T09:10:05Z</time>
      </trkpt>
      <trkpt lat="48.79921" lon="2.67195">
        <ele>115</ele>
        <time>2016-06-05T09:10:28Z</time>
      </trkpt>
      <trkpt lat="48.79918" lon="2.67194">
        <ele>115</ele>
        <time>2016-06-05T09:10:35Z</time>
      </trkpt>
      <trkpt lat="48.79915" lon="2.67198">
        <ele>115</ele>
        <time>2016-06-05T09:11:18Z</time>
      </trkpt>
      <trkpt lat="48.79914" lon="2.67213">
        <ele>115</ele>
        <time>2016-06-05T09:11:46Z</time>
      </trkpt>
      <trkpt lat="48.79897" lon="2.6728">
        <ele>114</ele>
        <time>2016-06-05T09:12:18Z</time>
      </trkpt>
      <trkpt lat="48.79894" lon="2.67312">
        <ele>114</ele>
        <time>2016-06-05T09:12:37Z</time>
      </trkpt>
      <trkpt lat="48.79872" lon="2.6734">
        <ele>114</ele>
        <time>2016-06-05T09:13:01Z</time>
      </trkpt>
      <trkpt lat="48.79857" lon="2.67348">
        <ele>114</ele>
        <time>2016-06-05T09:13:14Z</time>
      </trkpt>
      <trkpt lat="48.79856" lon="2.67355">
        <ele>114</ele>
        <time>2016-06-05T09:13:20Z</time>
      </trkpt>
      <trkpt lat="48.79859" lon="2.67361">
        <ele>114</ele>
        <time>2016-06-05T09:13:25Z</time>
      </trkpt>
      <trkpt lat="48.79862" lon="2.67366">
        <ele>114</ele>
        <time>2016-06-05T09:13:31Z</time>
      </trkpt>
      <trkpt lat="48.7986" lon="2.67372">
        <ele>114</ele>
        <time>2016-06-05T09:13:35Z</time>
      </trkpt>
      <trkpt lat="48.79859" lon="2.67375">
        <ele>114</ele>
        <time>2016-06-05T09:13:41Z</time>
      </trkpt>
      <trkpt lat="48.79862" lon="2.6738">
        <ele>115</ele>
        <time>2016-06-05T09:15:11Z</time>
      </trkpt>
      <trkpt lat="48.79866" lon="2.67384">
        <ele>114</ele>
        <time>2016-06-05T09:15:15Z</time>
      </trkpt>
      <trkpt lat="48.79873" lon="2.6741">
        <ele>114</ele>
        <time>2016-06-05T09:15:25Z</time>
      </trkpt>
      <trkpt lat="48.79873" lon="2.67477">
        <ele>114</ele>
        <time>2016-06-05T09:15:57Z</time>
      </trkpt>
      <trkpt lat="48.79872" lon="2.67493">
        <ele>114</ele>
        <time>2016-06-05T09:16:05Z</time>
      </trkpt>
      <trkpt lat="48.79869" lon="2.67499">
        <ele>114</ele>
        <time>2016-06-05T09:16:08Z</time>
      </trkpt>
      <trkpt lat="48.79863" lon="2.67554">
        <ele>113</ele>
        <time>2016-06-05T09:16:38Z</time>
      </trkpt>
      <trkpt lat="48.7986" lon="2.67588">
        <ele>113</ele>
        <time>2016-06-05T09:16:58Z</time>
      </trkpt>
      <trkpt lat="48.79869" lon="2.67636">
        <ele>113</ele>
        <time>2016-06-05T09:17:24Z</time>
      </trkpt>
      <trkpt lat="48.79884" lon="2.67654">
        <ele>114</ele>
        <time>2016-06-05T09:17:40Z</time>
      </trkpt>
      <trkpt lat="48.79903" lon="2.67715">
        <ele>114</ele>
        <time>2016-06-05T09:18:13Z</time>
      </trkpt>
      <trkpt lat="48.79922" lon="2.67754">
        <ele>113</ele>
        <time>2016-06-05T09:18:37Z</time>
      </trkpt>
      <trkpt lat="48.79922" lon="2.6777">
        <ele>114</ele>
        <time>2016-06-05T09:19:11Z</time>
      </trkpt>
      <trkpt lat="48.79922" lon="2.67779">
        <ele>113</ele>
        <time>2016-06-05T09:19:15Z</time>
      </trkpt>
      <trkpt lat="48.79926" lon="2.67793">
        <ele>113</ele>
        <time>2016-06-05T09:19:23Z</time>
      </trkpt>
      <trkpt lat="48.79924" lon="2.67808">
        <ele>113</ele>
        <time>2016-06-05T09:19:30Z</time>
      </trkpt>
      <trkpt lat="48.79915" lon="2.67867">
        <ele>113</ele>
        <time>2016-06-05T09:20:03Z</time>
      </trkpt>
      <trkpt lat="48.79914" lon="2.67928">
        <ele>113</ele>
        <time>2016-06-05T09:20:34Z</time>
      </trkpt>
      <trkpt lat="48.79929" lon="2.67991">
        <ele>113</ele>
        <time>2016-06-05T09:21:06Z</time>
      </trkpt>
      <trkpt lat="48.7993" lon="2.68011">
        <ele>113</ele>
        <time>2016-06-05T09:21:29Z</time>
      </trkpt>
      <trkpt lat="48.79928" lon="2.68025">
        <ele>114</ele>
        <time>2016-06-05T09:21:36Z</time>
      </trkpt>
      <trkpt lat="48.7993" lon="2.68049">
        <ele>114</ele>
        <time>2016-06-05T09:21:50Z</time>
      </trkpt>
      <trkpt lat="48.79937" lon="2.68093">
        <ele>114</ele>
        <time>2016-06-05T09:22:15Z</time>
      </trkpt>
      <trkpt lat="48.79945" lon="2.68104">
        <ele>114</ele>
        <time>2016-06-05T09:22:21Z</time>
      </trkpt>
      <trkpt lat="48.79955" lon="2.68164">
        <ele>114</ele>
        <time>2016-06-05T09:22:54Z</time>
      </trkpt>
      <trkpt lat="48.79963" lon="2.68172">
        <ele>114</ele>
        <time>2016-06-05T09:23:00Z</time>
      </trkpt>
      <trkpt lat="48.7998" lon="2.68222">
        <ele>114</ele>
        <time>2016-06-05T09:23:27Z</time>
      </trkpt>
      <trkpt lat="48.79991" lon="2.68281">
        <ele>114</ele>
        <time>2016-06-05T09:24:03Z</time>
      </trkpt>
      <trkpt lat="48.79994" lon="2.68325">
        <ele>114</ele>
        <time>2016-06-05T09:24:23Z</time>
      </trkpt>
      <trkpt lat="48.80018" lon="2.68383">
        <ele>114</ele>
        <time>2016-06-05T09:25:08Z</time>
      </trkpt>
      <trkpt lat="48.80015" lon="2.68397">
        <ele>114</ele>
        <time>2016-06-05T09:25:40Z</time>
      </trkpt>
      <trkpt lat="48.80007" lon="2.68402">
        <ele>114</ele>
        <time>2016-06-05T09:26:00Z</time>
      </trkpt>
      <trkpt lat="48.79977" lon="2.68408">
        <ele>114</ele>
        <time>2016-06-05T09:26:24Z</time>
      </trkpt>
      <trkpt lat="48.79962" lon="2.68425">
        <ele>114</ele>
        <time>2016-06-05T09:26:38Z</time>
      </trkpt>
      <trkpt lat="48.79954" lon="2.68425">
        <ele>113</ele>
        <time>2016-06-05T09:26:56Z</time>
      </trkpt>
      <trkpt lat="48.79947" lon="2.68435">
        <ele>113</ele>
        <time>2016-06-05T09:27:15Z</time>
      </trkpt>
      <trkpt lat="48.79934" lon="2.68455">
        <ele>114</ele>
        <time>2016-06-05T09:27:37Z</time>
      </trkpt>
      <trkpt lat="48.79906" lon="2.68466">
        <ele>113</ele>
        <time>2016-06-05T09:28:05Z</time>
      </trkpt>
      <trkpt lat="48.79878" lon="2.68457">
        <ele>113</ele>
        <time>2016-06-05T09:28:38Z</time>
      </trkpt>
      <trkpt lat="48.79863" lon="2.68458">
        <ele>113</ele>
        <time>2016-06-05T09:28:50Z</time>
      </trkpt>
      <trkpt lat="48.79855" lon="2.68444">
        <ele>113</ele>
        <time>2016-06-05T09:29:15Z</time>
      </trkpt>
      <trkpt lat="48.79845" lon="2.68445">
        <ele>113</ele>
        <time>2016-06-05T09:29:24Z</time>
      </trkpt>
      <trkpt lat="48.79808" lon="2.68457">
        <ele>113</ele>
        <time>2016-06-05T09:29:52Z</time>
      </trkpt>
      <trkpt lat="48.79798" lon="2.68447">
        <ele>113</ele>
        <time>2016-06-05T09:30:11Z</time>
      </trkpt>
      <trkpt lat="48.79771" lon="2.68407">
        <ele>113</ele>
        <time>2016-06-05T09:30:55Z</time>
      </trkpt>
      <trkpt lat="48.79734" lon="2.68403">
        <ele>113</ele>
        <time>2016-06-05T09:31:31Z</time>
      </trkpt>
      <trkpt lat="48.79726" lon="2.684">
        <ele>113</ele>
        <time>2016-06-05T09:31:42Z</time>
      </trkpt>
      <trkpt lat="48.79724" lon="2.68391">
        <ele>113</ele>
        <time>2016-06-05T09:32:02Z</time>
      </trkpt>
      <trkpt lat="48.79722" lon="2.68385">
        <ele>113</ele>
        <time>2016-06-05T09:32:06Z</time>
      </trkpt>
      <trkpt lat="48.79711" lon="2.68378">
        <ele>113</ele>
        <time>2016-06-05T09:32:21Z</time>
      </trkpt>
      <trkpt lat="48.79701" lon="2.6838">
        <ele>113</ele>
        <time>2016-06-05T09:32:31Z</time>
      </trkpt>
      <trkpt lat="48.79699" lon="2.68374">
        <ele>113</ele>
        <time>2016-06-05T09:32:37Z</time>
      </trkpt>
      <trkpt lat="48.79691" lon="2.68366">
        <ele>113</ele>
        <time>2016-06-05T09:32:49Z</time>
      </trkpt>
      <trkpt lat="48.79685" lon="2.68369">
        <ele>113</ele>
        <time>2016-06-05T09:32:54Z</time>
      </trkpt>
      <trkpt lat="48.79675" lon="2.6838">
        <ele>113</ele>
        <time>2016-06-05T09:33:05Z</time>
      </trkpt>
      <trkpt lat="48.79645" lon="2.68393">
        <ele>113</ele>
        <time>2016-06-05T09:33:31Z</time>
      </trkpt>
      <trkpt lat="48.79642" lon="2.68406">
        <ele>113</ele>
        <time>2016-06-05T09:33:42Z</time>
      </trkpt>
      <trkpt lat="48.79623" lon="2.68418">
        <ele>113</ele>
        <time>2016-06-05T09:33:55Z</time>
      </trkpt>
      <trkpt lat="48.79577" lon="2.68436">
        <ele>113</ele>
        <time>2016-06-05T09:34:30Z</time>
      </trkpt>
      <trkpt lat="48.79572" lon="2.68449">
        <ele>113</ele>
        <time>2016-06-05T09:35:09Z</time>
      </trkpt>
      <trkpt lat="48.79569" lon="2.68506">
        <ele>113</ele>
        <time>2016-06-05T09:35:43Z</time>
      </trkpt>
      <trkpt lat="48.79558" lon="2.68561">
        <ele>113</ele>
        <time>2016-06-05T09:36:25Z</time>
      </trkpt>
      <trkpt lat="48.79553" lon="2.68573">
        <ele>113</ele>
        <time>2016-06-05T09:36:36Z</time>
      </trkpt>
      <trkpt lat="48.79549" lon="2.68621">
        <ele>113</ele>
        <time>2016-06-05T09:37:06Z</time>
      </trkpt>
      <trkpt lat="48.79544" lon="2.68673">
        <ele>113</ele>
        <time>2016-06-05T09:37:38Z</time>
      </trkpt>
      <trkpt lat="48.79541" lon="2.6868">
        <ele>113</ele>
        <time>2016-06-05T09:37:42Z</time>
      </trkpt>
      <trkpt lat="48.79543" lon="2.68693">
        <ele>113</ele>
        <time>2016-06-05T09:37:50Z</time>
      </trkpt>
      <trkpt lat="48.79541" lon="2.687">
        <ele>113</ele>
        <time>2016-06-05T09:37:54Z</time>
      </trkpt>
      <trkpt lat="48.79542" lon="2.68745">
        <ele>113</ele>
        <time>2016-06-05T09:38:28Z</time>
      </trkpt>
      <trkpt lat="48.79544" lon="2.6876">
        <ele>113</ele>
        <time>2016-06-05T09:38:35Z</time>
      </trkpt>
      <trkpt lat="48.79541" lon="2.68771">
        <ele>113</ele>
        <time>2016-06-05T09:38:54Z</time>
      </trkpt>
      <trkpt lat="48.79534" lon="2.68831">
        <ele>113</ele>
        <time>2016-06-05T09:39:28Z</time>
      </trkpt>
      <trkpt lat="48.79531" lon="2.68874">
        <ele>113</ele>
        <time>2016-06-05T09:39:53Z</time>
      </trkpt>
      <trkpt lat="48.7952" lon="2.68926">
        <ele>113</ele>
        <time>2016-06-05T09:40:28Z</time>
      </trkpt>
      <trkpt lat="48.79509" lon="2.68981">
        <ele>113</ele>
        <time>2016-06-05T09:41:01Z</time>
      </trkpt>
      <trkpt lat="48.79511" lon="2.69039">
        <ele>113</ele>
        <time>2016-06-05T09:41:39Z</time>
      </trkpt>
      <trkpt lat="48.79509" lon="2.69083">
        <ele>113</ele>
        <time>2016-06-05T09:42:10Z</time>
      </trkpt>
      <trkpt lat="48.79515" lon="2.69109">
        <ele>113</ele>
        <time>2016-06-05T09:42:22Z</time>
      </trkpt>
      <trkpt lat="48.79514" lon="2.69126">
        <ele>113</ele>
        <time>2016-06-05T09:42:33Z</time>
      </trkpt>
      <trkpt lat="48.79515" lon="2.69137">
        <ele>114</ele>
        <time>2016-06-05T09:43:01Z</time>
      </trkpt>
      <trkpt lat="48.79506" lon="2.69135">
        <ele>114</ele>
        <time>2016-06-05T09:43:55Z</time>
      </trkpt>
      <trkpt lat="48.79491" lon="2.6912">
        <ele>114</ele>
        <time>2016-06-05T09:44:11Z</time>
      </trkpt>
      <trkpt lat="48.79445" lon="2.69098">
        <ele>114</ele>
        <time>2016-06-05T09:44:48Z</time>
      </trkpt>
      <trkpt lat="48.79427" lon="2.69089">
        <ele>114</ele>
        <time>2016-06-05T09:45:03Z</time>
      </trkpt>
      <trkpt lat="48.79421" lon="2.69079">
        <ele>114</ele>
        <time>2016-06-05T09:45:12Z</time>
      </trkpt>
      <trkpt lat="48.79376" lon="2.69047">
        <ele>114</ele>
        <time>2016-06-05T09:45:46Z</time>
      </trkpt>
      <trkpt lat="48.79339" lon="2.69021">
        <ele>113</ele>
        <time>2016-06-05T09:46:18Z</time>
      </trkpt>
      <trkpt lat="48.79297" lon="2.69001">
        <ele>114</ele>
        <time>2016-06-05T09:46:53Z</time>
      </trkpt>
      <trkpt lat="48.79259" lon="2.68977">
        <ele>114</ele>
        <time>2016-06-05T09:47:25Z</time>
      </trkpt>
      <trkpt lat="48.79254" lon="2.68974">
        <ele>114</ele>
        <time>2016-06-05T09:47:30Z</time>
      </trkpt>
      <trkpt lat="48.79249" lon="2.68964">
        <ele>114</ele>
        <time>2016-06-05T09:47:41Z</time>
      </trkpt>
      <trkpt lat="48.79244" lon="2.68966">
        <ele>114</ele>
        <time>2016-06-05T09:47:46Z</time>
      </trkpt>
      <trkpt lat="48.79241" lon="2.68965">
        <ele>114</ele>
        <time>2016-06-05T09:48:14Z</time>
      </trkpt>
      <trkpt lat="48.79241" lon="2.68972">
        <ele>114</ele>
        <time>2016-06-05T09:48:19Z</time>
      </trkpt>
      <trkpt lat="48.79239" lon="2.68987">
        <ele>114</ele>
        <time>2016-06-05T09:48:30Z</time>
      </trkpt>
      <trkpt lat="48.79241" lon="2.68993">
        <ele>113</ele>
        <time>2016-06-05T09:48:34Z</time>
      </trkpt>
      <trkpt lat="48.79242" lon="2.69">
        <ele>113</ele>
        <time>2016-06-05T09:48:39Z</time>
      </trkpt>
      <trkpt lat="48.79238" lon="2.69014">
        <ele>113</ele>
        <time>2016-06-05T09:48:47Z</time>
      </trkpt>
      <trkpt lat="48.79231" lon="2.69042">
        <ele>114</ele>
        <time>2016-06-05T09:49:00Z</time>
      </trkpt>
      <trkpt lat="48.79226" lon="2.69093">
        <ele>114</ele>
        <time>2016-06-05T09:49:34Z</time>
      </trkpt>
      <trkpt lat="48.79215" lon="2.69164">
        <ele>114</ele>
        <time>2016-06-05T09:50:08Z</time>
      </trkpt>
      <trkpt lat="48.79207" lon="2.6924">
        <ele>114</ele>
        <time>2016-06-05T09:50:51Z</time>
      </trkpt>
      <trkpt lat="48.79204" lon="2.69276">
        <ele>114</ele>
        <time>2016-06-05T09:51:29Z</time>
      </trkpt>
      <trkpt lat="48.79202" lon="2.69306">
        <ele>114</ele>
        <time>2016-06-05T09:51:48Z</time>
      </trkpt>
      <trkpt lat="48.79186" lon="2.69368">
        <ele>114</ele>
        <time>2016-06-05T09:52:17Z</time>
      </trkpt>
      <trkpt lat="48.79191" lon="2.69382">
        <ele>114</ele>
        <time>2016-06-05T09:52:29Z</time>
      </trkpt>
      <trkpt lat="48.79188" lon="2.69388">
        <ele>114</ele>
        <time>2016-06-05T09:52:34Z</time>
      </trkpt>
      <trkpt lat="48.79183" lon="2.69443">
        <ele>114</ele>
        <time>2016-06-05T09:53:06Z</time>
      </trkpt>
      <trkpt lat="48.79182" lon="2.69463">
        <ele>114</ele>
        <time>2016-06-05T09:53:16Z</time>
      </trkpt>
      <trkpt lat="48.79184" lon="2.69469">
        <ele>114</ele>
        <time>2016-06-05T09:53:19Z</time>
      </trkpt>
      <trkpt lat="48.79182" lon="2.69499">
        <ele>114</ele>
        <time>2016-06-05T09:53:34Z</time>
      </trkpt>
      <trkpt lat="48.79177" lon="2.6951">
        <ele>114</ele>
        <time>2016-06-05T09:53:42Z</time>
      </trkpt>
      <trkpt lat="48.79179" lon="2.69524">
        <ele>114</ele>
        <time>2016-06-05T09:53:52Z</time>
      </trkpt>
      <trkpt lat="48.79164" lon="2.69596">
        <ele>115</ele>
        <time>2016-06-05T09:54:28Z</time>
      </trkpt>
      <trkpt lat="48.79161" lon="2.69609">
        <ele>115</ele>
        <time>2016-06-05T09:54:36Z</time>
      </trkpt>
      <trkpt lat="48.79156" lon="2.69672">
        <ele>115</ele>
        <time>2016-06-05T09:55:08Z</time>
      </trkpt>
      <trkpt lat="48.79158" lon="2.69687">
        <ele>114</ele>
        <time>2016-06-05T09:55:16Z</time>
      </trkpt>
      <trkpt lat="48.79151" lon="2.69704">
        <ele>114</ele>
        <time>2016-06-05T09:55:31Z</time>
      </trkpt>
      <trkpt lat="48.79147" lon="2.69765">
        <ele>114</ele>
        <time>2016-06-05T09:56:05Z</time>
      </trkpt>
      <trkpt lat="48.79145" lon="2.69826">
        <ele>115</ele>
        <time>2016-06-05T09:56:38Z</time>
      </trkpt>
      <trkpt lat="48.79133" lon="2.69891">
        <ele>114</ele>
        <time>2016-06-05T09:57:09Z</time>
      </trkpt>
      <trkpt lat="48.79131" lon="2.69897">
        <ele>114</ele>
        <time>2016-06-05T09:57:12Z</time>
      </trkpt>
      <trkpt lat="48.79131" lon="2.69912">
        <ele>114</ele>
        <time>2016-06-05T09:57:18Z</time>
      </trkpt>
      <trkpt lat="48.79135" lon="2.69926">
        <ele>114</ele>
        <time>2016-06-05T09:57:24Z</time>
      </trkpt>
      <trkpt lat="48.79136" lon="2.6995">
        <ele>114</ele>
        <time>2016-06-05T09:57:36Z</time>
      </trkpt>
      <trkpt lat="48.79132" lon="2.69991">
        <ele>114</ele>
        <time>2016-06-05T09:57:58Z</time>
      </trkpt>
      <trkpt lat="48.79123" lon="2.7005">
        <ele>114</ele>
        <time>2016-06-05T09:58:28Z</time>
      </trkpt>
      <trkpt lat="48.79116" lon="2.70119">
        <ele>114</ele>
        <time>2016-06-05T09:59:00Z</time>
      </trkpt>
      <trkpt lat="48.79117" lon="2.70126">
        <ele>114</ele>
        <time>2016-06-05T09:59:04Z</time>
      </trkpt>
      <trkpt lat="48.79106" lon="2.70196">
        <ele>114</ele>
        <time>2016-06-05T09:59:36Z</time>
      </trkpt>
      <trkpt lat="48.791" lon="2.70224">
        <ele>114</ele>
        <time>2016-06-05T09:59:54Z</time>
      </trkpt>
      <trkpt lat="48.79101" lon="2.70232">
        <ele>114</ele>
        <time>2016-06-05T09:59:59Z</time>
      </trkpt>
      <trkpt lat="48.79099" lon="2.70246">
        <ele>114</ele>
        <time>2016-06-05T10:00:08Z</time>
      </trkpt>
      <trkpt lat="48.79096" lon="2.7025">
        <ele>114</ele>
        <time>2016-06-05T10:00:15Z</time>
      </trkpt>
      <trkpt lat="48.79092" lon="2.70254">
        <ele>114</ele>
        <time>2016-06-05T10:00:31Z</time>
      </trkpt>
      <trkpt lat="48.79091" lon="2.70264">
        <ele>114</ele>
        <time>2016-06-05T10:00:41Z</time>
      </trkpt>
      <trkpt lat="48.79085" lon="2.70276">
        <ele>114</ele>
        <time>2016-06-05T10:00:49Z</time>
      </trkpt>
      <trkpt lat="48.79086" lon="2.70292">
        <ele>114</ele>
        <time>2016-06-05T10:00:57Z</time>
      </trkpt>
      <trkpt lat="48.79089" lon="2.70314">
        <ele>114</ele>
        <time>2016-06-05T10:01:08Z</time>
      </trkpt>
      <trkpt lat="48.79086" lon="2.70328">
        <ele>114</ele>
        <time>2016-06-05T10:01:15Z</time>
      </trkpt>
      <trkpt lat="48.79087" lon="2.70351">
        <ele>114</ele>
        <time>2016-06-05T10:01:28Z</time>
      </trkpt>
      <trkpt lat="48.79074" lon="2.70415">
        <ele>114</ele>
        <time>2016-06-05T10:02:16Z</time>
      </trkpt>
      <trkpt lat="48.79068" lon="2.70486">
        <ele>114</ele>
        <time>2016-06-05T10:02:50Z</time>
      </trkpt>
      <trkpt lat="48.79056" lon="2.70539">
        <ele>114</ele>
        <time>2016-06-05T10:03:14Z</time>
      </trkpt>
      <trkpt lat="48.79059" lon="2.70554">
        <ele>114</ele>
        <time>2016-06-05T10:03:20Z</time>
      </trkpt>
      <trkpt lat="48.79047" lon="2.70625">
        <ele>114</ele>
        <time>2016-06-05T10:03:56Z</time>
      </trkpt>
      <trkpt lat="48.79041" lon="2.70684">
        <ele>114</ele>
        <time>2016-06-05T10:04:26Z</time>
      </trkpt>
      <trkpt lat="48.79038" lon="2.70704">
        <ele>114</ele>
        <time>2016-06-05T10:04:38Z</time>
      </trkpt>
      <trkpt lat="48.79037" lon="2.70741">
        <ele>114</ele>
        <time>2016-06-05T10:04:56Z</time>
      </trkpt>
      <trkpt lat="48.79033" lon="2.70747">
        <ele>114</ele>
        <time>2016-06-05T10:04:59Z</time>
      </trkpt>
      <trkpt lat="48.79028" lon="2.70752">
        <ele>114</ele>
        <time>2016-06-05T10:05:01Z</time>
      </trkpt>
      <trkpt lat="48.79025" lon="2.70773">
        <ele>114</ele>
        <time>2016-06-05T10:05:10Z</time>
      </trkpt>
      <trkpt lat="48.79026" lon="2.70818">
        <ele>115</ele>
        <time>2016-06-05T10:06:47Z</time>
      </trkpt>
      <trkpt lat="48.79013" lon="2.70876">
        <ele>115</ele>
        <time>2016-06-05T10:07:18Z</time>
      </trkpt>
      <trkpt lat="48.79007" lon="2.70936">
        <ele>115</ele>
        <time>2016-06-05T10:07:50Z</time>
      </trkpt>
      <trkpt lat="48.78994" lon="2.7101">
        <ele>114</ele>
        <time>2016-06-05T10:08:22Z</time>
      </trkpt>
      <trkpt lat="48.79001" lon="2.71062">
        <ele>114</ele>
        <time>2016-06-05T10:08:47Z</time>
      </trkpt>
      <trkpt lat="48.79" lon="2.71095">
        <ele>116</ele>
        <time>2016-06-05T10:09:01Z</time>
      </trkpt>
      <trkpt lat="48.7899" lon="2.71115">
        <ele>117</ele>
        <time>2016-06-05T10:09:11Z</time>
      </trkpt>
      <trkpt lat="48.7899" lon="2.71123">
        <ele>117</ele>
        <time>2016-06-05T10:09:15Z</time>
      </trkpt>
      <trkpt lat="48.78993" lon="2.71129">
        <ele>117</ele>
        <time>2016-06-05T10:09:18Z</time>
      </trkpt>
      <trkpt lat="48.78993" lon="2.71135">
        <ele>116</ele>
        <time>2016-06-05T10:09:30Z</time>
      </trkpt>
      <trkpt lat="48.7899" lon="2.71144">
        <ele>117</ele>
        <time>2016-06-05T10:09:36Z</time>
      </trkpt>
      <trkpt lat="48.78988" lon="2.71184">
        <ele>116</ele>
        <time>2016-06-05T10:10:06Z</time>
      </trkpt>
      <trkpt lat="48.78989" lon="2.71193">
        <ele>116</ele>
        <time>2016-06-05T10:10:10Z</time>
      </trkpt>
      <trkpt lat="48.78994" lon="2.71198">
        <ele>116</ele>
        <time>2016-06-05T10:10:14Z</time>
      </trkpt>
      <trkpt lat="48.78995" lon="2.71205">
        <ele>116</ele>
        <time>2016-06-05T10:10:18Z</time>
      </trkpt>
      <trkpt lat="48.78993" lon="2.71222">
        <ele>116</ele>
        <time>2016-06-05T10:10:29Z</time>
      </trkpt>
      <trkpt lat="48.7899" lon="2.71228">
        <ele>116</ele>
        <time>2016-06-05T10:10:39Z</time>
      </trkpt>
      <trkpt lat="48.78989" lon="2.71252">
        <ele>116</ele>
        <time>2016-06-05T10:10:50Z</time>
      </trkpt>
      <trkpt lat="48.78985" lon="2.71259">
        <ele>116</ele>
        <time>2016-06-05T10:10:55Z</time>
      </trkpt>
      <trkpt lat="48.78972" lon="2.71338">
        <ele>116</ele>
        <time>2016-06-05T10:11:27Z</time>
      </trkpt>
      <trkpt lat="48.78969" lon="2.71369">
        <ele>116</ele>
        <time>2016-06-05T10:11:40Z</time>
      </trkpt>
      <trkpt lat="48.78956" lon="2.71393">
        <ele>115</ele>
        <time>2016-06-05T10:11:54Z</time>
      </trkpt>
      <trkpt lat="48.78949" lon="2.71429">
        <ele>113</ele>
        <time>2016-06-05T10:12:12Z</time>
      </trkpt>
      <trkpt lat="48.7895" lon="2.71437">
        <ele>113</ele>
        <time>2016-06-05T10:12:18Z</time>
      </trkpt>
      <trkpt lat="48.78953" lon="2.71458">
        <ele>114</ele>
        <time>2016-06-05T10:12:34Z</time>
      </trkpt>
      <trkpt lat="48.78947" lon="2.71522">
        <ele>115</ele>
        <time>2016-06-05T10:13:12Z</time>
      </trkpt>
      <trkpt lat="48.78944" lon="2.7159">
        <ele>115</ele>
        <time>2016-06-05T10:13:45Z</time>
      </trkpt>
      <trkpt lat="48.7893" lon="2.7167">
        <ele>115</ele>
        <time>2016-06-05T10:14:22Z</time>
      </trkpt>
      <trkpt lat="48.78923" lon="2.7174">
        <ele>115</ele>
        <time>2016-06-05T10:14:58Z</time>
      </trkpt>
      <trkpt lat="48.78917" lon="2.71796">
        <ele>115</ele>
        <time>2016-06-05T10:15:29Z</time>
      </trkpt>
      <trkpt lat="48.78916" lon="2.71854">
        <ele>115</ele>
        <time>2016-06-05T10:16:02Z</time>
      </trkpt>
      <trkpt lat="48.78905" lon="2.71917">
        <ele>115</ele>
        <time>2016-06-05T10:16:35Z</time>
      </trkpt>
      <trkpt lat="48.78892" lon="2.71992">
        <ele>115</ele>
        <time>2016-06-05T10:17:10Z</time>
      </trkpt>
      <trkpt lat="48.78883" lon="2.72062">
        <ele>115</ele>
        <time>2016-06-05T10:17:47Z</time>
      </trkpt>
      <trkpt lat="48.78886" lon="2.72093">
        <ele>116</ele>
        <time>2016-06-05T10:18:01Z</time>
      </trkpt>
      <trkpt lat="48.78873" lon="2.72148">
        <ele>116</ele>
        <time>2016-06-05T10:18:32Z</time>
      </trkpt>
      <trkpt lat="48.78871" lon="2.7222">
        <ele>116</ele>
        <time>2016-06-05T10:19:04Z</time>
      </trkpt>
      <trkpt lat="48.78865" lon="2.72277">
        <ele>116</ele>
        <time>2016-06-05T10:19:37Z</time>
      </trkpt>
      <trkpt lat="48.78858" lon="2.7232">
        <ele>116</ele>
        <time>2016-06-05T10:19:57Z</time>
      </trkpt>
      <trkpt lat="48.78856" lon="2.72329">
        <ele>117</ele>
        <time>2016-06-05T10:21:02Z</time>
      </trkpt>
      <trkpt lat="48.78855" lon="2.72336">
        <ele>117</ele>
        <time>2016-06-05T10:21:25Z</time>
      </trkpt>
      <trkpt lat="48.7885" lon="2.72336">
        <ele>116</ele>
        <time>2016-06-05T10:22:44Z</time>
      </trkpt>
      <trkpt lat="48.7884" lon="2.72333">
        <ele>116</ele>
        <time>2016-06-05T10:23:01Z</time>
      </trkpt>
      <trkpt lat="48.78824" lon="2.72331">
        <ele>115</ele>
        <time>2016-06-05T10:23:15Z</time>
      </trkpt>
      <trkpt lat="48.78819" lon="2.72334">
        <ele>115</ele>
        <time>2016-06-05T10:23:18Z</time>
      </trkpt>
      <trkpt lat="48.78809" lon="2.7233">
        <ele>115</ele>
        <time>2016-06-05T10:23:28Z</time>
      </trkpt>
      <trkpt lat="48.78805" lon="2.72327">
        <ele>115</ele>
        <time>2016-06-05T10:23:31Z</time>
      </trkpt>
      <trkpt lat="48.78768" lon="2.72331">
        <ele>115</ele>
        <time>2016-06-05T10:24:01Z</time>
      </trkpt>
      <trkpt lat="48.78741" lon="2.72324">
        <ele>115</ele>
        <time>2016-06-05T10:24:35Z</time>
      </trkpt>
      <trkpt lat="48.78703" lon="2.72323">
        <ele>115</ele>
        <time>2016-06-05T10:25:07Z</time>
      </trkpt>
      <trkpt lat="48.787" lon="2.72319">
        <ele>115</ele>
        <time>2016-06-05T10:25:18Z</time>
      </trkpt>
      <trkpt lat="48.78669" lon="2.72311">
        <ele>115</ele>
        <time>2016-06-05T10:25:41Z</time>
      </trkpt>
      <trkpt lat="48.78661" lon="2.72315">
        <ele>115</ele>
        <time>2016-06-05T10:25:49Z</time>
      </trkpt>
      <trkpt lat="48.78623" lon="2.72306">
        <ele>115</ele>
        <time>2016-06-05T10:26:24Z</time>
      </trkpt>
      <trkpt lat="48.78595" lon="2.723">
        <ele>115</ele>
        <time>2016-06-05T10:26:42Z</time>
      </trkpt>
      <trkpt lat="48.78586" lon="2.72304">
        <ele>115</ele>
        <time>2016-06-05T10:26:47Z</time>
      </trkpt>
      <trkpt lat="48.78549" lon="2.72298">
        <ele>115</ele>
        <time>2016-06-05T10:27:20Z</time>
      </trkpt>
      <trkpt lat="48.78512" lon="2.72291">
        <ele>115</ele>
        <time>2016-06-05T10:27:53Z</time>
      </trkpt>
      <trkpt lat="48.78473" lon="2.72293">
        <ele>115</ele>
        <time>2016-06-05T10:28:27Z</time>
      </trkpt>
      <trkpt lat="48.78463" lon="2.72293">
        <ele>115</ele>
        <time>2016-06-05T10:28:31Z</time>
      </trkpt>
      <trkpt lat="48.78434" lon="2.72281">
        <ele>115</ele>
        <time>2016-06-05T10:29:04Z</time>
      </trkpt>
      <trkpt lat="48.78387" lon="2.72278">
        <ele>115</ele>
        <time>2016-06-05T10:29:43Z</time>
      </trkpt>
      <trkpt lat="48.78349" lon="2.72275">
        <ele>115</ele>
        <time>2016-06-05T10:30:14Z</time>
      </trkpt>
      <trkpt lat="48.78341" lon="2.72268">
        <ele>115</ele>
        <time>2016-06-05T10:30:25Z</time>
      </trkpt>
      <trkpt lat="48.7833" lon="2.72265">
        <ele>115</ele>
        <time>2016-06-05T10:30:34Z</time>
      </trkpt>
      <trkpt lat="48.78324" lon="2.72264">
        <ele>115</ele>
        <time>2016-06-05T10:30:38Z</time>
      </trkpt>
      <trkpt lat="48.78276" lon="2.72273">
        <ele>114</ele>
        <time>2016-06-05T10:31:08Z</time>
      </trkpt>
      <trkpt lat="48.78271" lon="2.72265">
        <ele>114</ele>
        <time>2016-06-05T10:31:15Z</time>
      </trkpt>
      <trkpt lat="48.78266" lon="2.72268">
        <ele>114</ele>
        <time>2016-06-05T10:31:20Z</time>
      </trkpt>
      <trkpt lat="48.78242" lon="2.72273">
        <ele>114</ele>
        <time>2016-06-05T10:31:50Z</time>
      </trkpt>
      <trkpt lat="48.78238" lon="2.72265">
        <ele>114</ele>
        <time>2016-06-05T10:31:59Z</time>
      </trkpt>
      <trkpt lat="48.78223" lon="2.72259">
        <ele>114</ele>
        <time>2016-06-05T10:32:11Z</time>
      </trkpt>
      <trkpt lat="48.78213" lon="2.72261">
        <ele>114</ele>
        <time>2016-06-05T10:32:18Z</time>
      </trkpt>
      <trkpt lat="48.78204" lon="2.72266">
        <ele>114</ele>
        <time>2016-06-05T10:32:25Z</time>
      </trkpt>
      <trkpt lat="48.78201" lon="2.7226">
        <ele>114</ele>
        <time>2016-06-05T10:32:30Z</time>
      </trkpt>
      <trkpt lat="48.7819" lon="2.72257">
        <ele>114</ele>
        <time>2016-06-05T10:32:40Z</time>
      </trkpt>
      <trkpt lat="48.78153" lon="2.72252">
        <ele>114</ele>
        <time>2016-06-05T10:33:13Z</time>
      </trkpt>
      <trkpt lat="48.78114" lon="2.72236">
        <ele>114</ele>
        <time>2016-06-05T10:33:51Z</time>
      </trkpt>
      <trkpt lat="48.78079" lon="2.7223">
        <ele>114</ele>
        <time>2016-06-05T10:34:26Z</time>
      </trkpt>
      <trkpt lat="48.7804" lon="2.72231">
        <ele>114</ele>
        <time>2016-06-05T10:35:01Z</time>
      </trkpt>
      <trkpt lat="48.78012" lon="2.72224">
        <ele>114</ele>
        <time>2016-06-05T10:35:39Z</time>
      </trkpt>
      <trkpt lat="48.77976" lon="2.72222">
        <ele>114</ele>
        <time>2016-06-05T10:36:11Z</time>
      </trkpt>
      <trkpt lat="48.77957" lon="2.72215">
        <ele>115</ele>
        <time>2016-06-05T10:36:33Z</time>
      </trkpt>
      <trkpt lat="48.77917" lon="2.72215">
        <ele>114</ele>
        <time>2016-06-05T10:37:05Z</time>
      </trkpt>
      <trkpt lat="48.77883" lon="2.72216">
        <ele>114</ele>
        <time>2016-06-05T10:37:35Z</time>
      </trkpt>
      <trkpt lat="48.7788" lon="2.7221">
        <ele>114</ele>
        <time>2016-06-05T10:37:50Z</time>
      </trkpt>
      <trkpt lat="48.77875" lon="2.7221">
        <ele>114</ele>
        <time>2016-06-05T10:37:53Z</time>
      </trkpt>
      <trkpt lat="48.77864" lon="2.72213">
        <ele>114</ele>
        <time>2016-06-05T10:38:01Z</time>
      </trkpt>
      <trkpt lat="48.77856" lon="2.72208">
        <ele>115</ele>
        <time>2016-06-05T10:38:18Z</time>
      </trkpt>
      <trkpt lat="48.77822" lon="2.72213">
        <ele>114</ele>
        <time>2016-06-05T10:38:50Z</time>
      </trkpt>
      <trkpt lat="48.77809" lon="2.7221">
        <ele>114</ele>
        <time>2016-06-05T10:39:10Z</time>
      </trkpt>
      <trkpt lat="48.77806" lon="2.72207">
        <ele>114</ele>
        <time>2016-06-05T10:39:17Z</time>
      </trkpt>
      <trkpt lat="48.77801" lon="2.72209">
        <ele>114</ele>
        <time>2016-06-05T10:39:22Z</time>
      </trkpt>
      <trkpt lat="48.77799" lon="2.72211">
        <ele>114</ele>
        <time>2016-06-05T10:39:29Z</time>
      </trkpt>
      <trkpt lat="48.77794" lon="2.72208">
        <ele>114</ele>
        <time>2016-06-05T10:39:39Z</time>
      </trkpt>
      <trkpt lat="48.77789" lon="2.72209">
        <ele>114</ele>
        <time>2016-06-05T10:39:43Z</time>
      </trkpt>
      <trkpt lat="48.77785" lon="2.72212">
        <ele>114</ele>
        <time>2016-06-05T10:39:48Z</time>
      </trkpt>
      <trkpt lat="48.77786" lon="2.7222">
        <ele>114</ele>
        <time>2016-06-05T10:40:32Z</time>
      </trkpt>
      <trkpt lat="48.77787" lon="2.72225">
        <ele>114</ele>
        <time>2016-06-05T10:40:43Z</time>
      </trkpt>
      <trkpt lat="48.77783" lon="2.72226">
        <ele>114</ele>
        <time>2016-06-05T10:40:58Z</time>
      </trkpt>
      <trkpt lat="48.77784" lon="2.72213">
        <ele>114</ele>
        <time>2016-06-05T10:41:06Z</time>
      </trkpt>
      <trkpt lat="48.77788" lon="2.72216">
        <ele>114</ele>
        <time>2016-06-05T10:41:14Z</time>
      </trkpt>
      <trkpt lat="48.77787" lon="2.72224">
        <ele>114</ele>
        <time>2016-06-05T10:41:23Z</time>
      </trkpt>
      <trkpt lat="48.77788" lon="2.72229">
        <ele>114</ele>
        <time>2016-06-05T10:41:31Z</time>
      </trkpt>
      <trkpt lat="48.77791" lon="2.72221">
        <ele>118</ele>
        <time>2016-06-05T11:13:36Z</time>
      </trkpt>
      <trkpt lat="48.77783" lon="2.72229">
        <ele>122</ele>
        <time>2016-06-05T11:25:45Z</time>
      </trkpt>
      <trkpt lat="48.77775" lon="2.72279">
        <ele>118</ele>
        <time>2016-06-05T11:30:28Z</time>
      </trkpt>
      <trkpt lat="48.77782" lon="2.72349">
        <ele>118</ele>
        <time>2016-06-05T11:31:02Z</time>
      </trkpt>
      <trkpt lat="48.77784" lon="2.72357">
        <ele>118</ele>
        <time>2016-06-05T11:31:06Z</time>
      </trkpt>
      <trkpt lat="48.77774" lon="2.72417">
        <ele>118</ele>
        <time>2016-06-05T11:31:39Z</time>
      </trkpt>
      <trkpt lat="48.77775" lon="2.7243">
        <ele>118</ele>
        <time>2016-06-05T11:31:43Z</time>
      </trkpt>
      <trkpt lat="48.77775" lon="2.72483">
        <ele>116</ele>
        <time>2016-06-05T11:32:13Z</time>
      </trkpt>
      <trkpt lat="48.77771" lon="2.72518">
        <ele>116</ele>
        <time>2016-06-05T11:32:26Z</time>
      </trkpt>
      <trkpt lat="48.77766" lon="2.72526">
        <ele>116</ele>
        <time>2016-06-05T11:32:31Z</time>
      </trkpt>
      <trkpt lat="48.77764" lon="2.7254">
        <ele>116</ele>
        <time>2016-06-05T11:32:38Z</time>
      </trkpt>
      <trkpt lat="48.77765" lon="2.72547">
        <ele>116</ele>
        <time>2016-06-05T11:32:41Z</time>
      </trkpt>
      <trkpt lat="48.77768" lon="2.72553">
        <ele>116</ele>
        <time>2016-06-05T11:32:45Z</time>
      </trkpt>
      <trkpt lat="48.77768" lon="2.7259">
        <ele>116</ele>
        <time>2016-06-05T11:33:03Z</time>
      </trkpt>
      <trkpt lat="48.77767" lon="2.726">
        <ele>116</ele>
        <time>2016-06-05T11:33:06Z</time>
      </trkpt>
      <trkpt lat="48.77769" lon="2.72603">
        <ele>116</ele>
        <time>2016-06-05T11:33:07Z</time>
      </trkpt>
      <trkpt lat="48.77772" lon="2.72608">
        <ele>116</ele>
        <time>2016-06-05T11:33:12Z</time>
      </trkpt>
      <trkpt lat="48.77773" lon="2.72616">
        <ele>116</ele>
        <time>2016-06-05T11:33:18Z</time>
      </trkpt>
      <trkpt lat="48.77769" lon="2.72682">
        <ele>116</ele>
        <time>2016-06-05T11:33:50Z</time>
      </trkpt>
      <trkpt lat="48.77769" lon="2.72705">
        <ele>116</ele>
        <time>2016-06-05T11:34:01Z</time>
      </trkpt>
      <trkpt lat="48.77767" lon="2.72712">
        <ele>116</ele>
        <time>2016-06-05T11:34:04Z</time>
      </trkpt>
      <trkpt lat="48.77764" lon="2.72719">
        <ele>117</ele>
        <time>2016-06-05T11:34:07Z</time>
      </trkpt>
      <trkpt lat="48.77758" lon="2.72785">
        <ele>116</ele>
        <time>2016-06-05T11:34:42Z</time>
      </trkpt>
      <trkpt lat="48.77756" lon="2.72792">
        <ele>116</ele>
        <time>2016-06-05T11:34:47Z</time>
      </trkpt>
      <trkpt lat="48.77759" lon="2.72801">
        <ele>116</ele>
        <time>2016-06-05T11:34:51Z</time>
      </trkpt>
      <trkpt lat="48.77763" lon="2.72807">
        <ele>116</ele>
        <time>2016-06-05T11:34:54Z</time>
      </trkpt>
      <trkpt lat="48.77763" lon="2.72816">
        <ele>116</ele>
        <time>2016-06-05T11:34:58Z</time>
      </trkpt>
      <trkpt lat="48.77762" lon="2.72824">
        <ele>116</ele>
        <time>2016-06-05T11:35:00Z</time>
      </trkpt>
      <trkpt lat="48.77756" lon="2.7289">
        <ele>116</ele>
        <time>2016-06-05T11:35:30Z</time>
      </trkpt>
      <trkpt lat="48.77756" lon="2.72898">
        <ele>116</ele>
        <time>2016-06-05T11:35:35Z</time>
      </trkpt>
      <trkpt lat="48.7776" lon="2.72912">
        <ele>116</ele>
        <time>2016-06-05T11:35:41Z</time>
      </trkpt>
      <trkpt lat="48.77765" lon="2.72974">
        <ele>115</ele>
        <time>2016-06-05T11:36:12Z</time>
      </trkpt>
      <trkpt lat="48.77765" lon="2.72998">
        <ele>115</ele>
        <time>2016-06-05T11:36:29Z</time>
      </trkpt>
      <trkpt lat="48.77768" lon="2.73004">
        <ele>115</ele>
        <time>2016-06-05T11:36:33Z</time>
      </trkpt>
      <trkpt lat="48.7777" lon="2.73011">
        <ele>115</ele>
        <time>2016-06-05T11:36:38Z</time>
      </trkpt>
      <trkpt lat="48.77767" lon="2.73017">
        <ele>115</ele>
        <time>2016-06-05T11:36:41Z</time>
      </trkpt>
      <trkpt lat="48.77763" lon="2.73032">
        <ele>115</ele>
        <time>2016-06-05T11:36:47Z</time>
      </trkpt>
      <trkpt lat="48.77765" lon="2.73038">
        <ele>115</ele>
        <time>2016-06-05T11:36:51Z</time>
      </trkpt>
      <trkpt lat="48.77769" lon="2.73084">
        <ele>116</ele>
        <time>2016-06-05T11:37:16Z</time>
      </trkpt>
      <trkpt lat="48.77762" lon="2.73155">
        <ele>116</ele>
        <time>2016-06-05T11:37:53Z</time>
      </trkpt>
      <trkpt lat="48.77757" lon="2.73215">
        <ele>116</ele>
        <time>2016-06-05T11:38:24Z</time>
      </trkpt>
      <trkpt lat="48.77756" lon="2.73273">
        <ele>116</ele>
        <time>2016-06-05T11:38:56Z</time>
      </trkpt>
      <trkpt lat="48.77753" lon="2.73288">
        <ele>116</ele>
        <time>2016-06-05T11:39:03Z</time>
      </trkpt>
      <trkpt lat="48.77759" lon="2.733">
        <ele>116</ele>
        <time>2016-06-05T11:39:10Z</time>
      </trkpt>
      <trkpt lat="48.77759" lon="2.73309">
        <ele>116</ele>
        <time>2016-06-05T11:39:15Z</time>
      </trkpt>
      <trkpt lat="48.77757" lon="2.73317">
        <ele>116</ele>
        <time>2016-06-05T11:39:20Z</time>
      </trkpt>
      <trkpt lat="48.77758" lon="2.73325">
        <ele>116</ele>
        <time>2016-06-05T11:39:24Z</time>
      </trkpt>
      <trkpt lat="48.77756" lon="2.73332">
        <ele>116</ele>
        <time>2016-06-05T11:39:28Z</time>
      </trkpt>
      <trkpt lat="48.77758" lon="2.73356">
        <ele>116</ele>
        <time>2016-06-05T11:39:41Z</time>
      </trkpt>
      <trkpt lat="48.77749" lon="2.7341">
        <ele>116</ele>
        <time>2016-06-05T11:40:07Z</time>
      </trkpt>
      <trkpt lat="48.77751" lon="2.73416">
        <ele>116</ele>
        <time>2016-06-05T11:40:25Z</time>
      </trkpt>
      <trkpt lat="48.77751" lon="2.73425">
        <ele>116</ele>
        <time>2016-06-05T11:40:30Z</time>
      </trkpt>
      <trkpt lat="48.77754" lon="2.7349">
        <ele>116</ele>
        <time>2016-06-05T11:41:02Z</time>
      </trkpt>
      <trkpt lat="48.77751" lon="2.73555">
        <ele>116</ele>
        <time>2016-06-05T11:41:32Z</time>
      </trkpt>
      <trkpt lat="48.77753" lon="2.73563">
        <ele>116</ele>
        <time>2016-06-05T11:41:36Z</time>
      </trkpt>
      <trkpt lat="48.77749" lon="2.73577">
        <ele>116</ele>
        <time>2016-06-05T11:41:43Z</time>
      </trkpt>
      <trkpt lat="48.77749" lon="2.73584">
        <ele>115</ele>
        <time>2016-06-05T11:41:47Z</time>
      </trkpt>
      <trkpt lat="48.77743" lon="2.73631">
        <ele>115</ele>
        <time>2016-06-05T11:42:11Z</time>
      </trkpt>
      <trkpt lat="48.77747" lon="2.73646">
        <ele>115</ele>
        <time>2016-06-05T11:42:18Z</time>
      </trkpt>
      <trkpt lat="48.77752" lon="2.73689">
        <ele>115</ele>
        <time>2016-06-05T11:42:40Z</time>
      </trkpt>
      <trkpt lat="48.77747" lon="2.73704">
        <ele>115</ele>
        <time>2016-06-05T11:42:48Z</time>
      </trkpt>
      <trkpt lat="48.77748" lon="2.73712">
        <ele>115</ele>
        <time>2016-06-05T11:42:52Z</time>
      </trkpt>
      <trkpt lat="48.77746" lon="2.7372">
        <ele>115</ele>
        <time>2016-06-05T11:42:57Z</time>
      </trkpt>
      <trkpt lat="48.77744" lon="2.73721">
        <ele>115</ele>
        <time>2016-06-05T11:43:14Z</time>
      </trkpt>
      <trkpt lat="48.77742" lon="2.73729">
        <ele>115</ele>
        <time>2016-06-05T11:44:16Z</time>
      </trkpt>
      <trkpt lat="48.77743" lon="2.73737">
        <ele>115</ele>
        <time>2016-06-05T11:44:19Z</time>
      </trkpt>
      <trkpt lat="48.7774" lon="2.73761">
        <ele>114</ele>
        <time>2016-06-05T11:44:30Z</time>
      </trkpt>
      <trkpt lat="48.77742" lon="2.7377">
        <ele>114</ele>
        <time>2016-06-05T11:44:34Z</time>
      </trkpt>
      <trkpt lat="48.77745" lon="2.73815">
        <ele>114</ele>
        <time>2016-06-05T11:44:55Z</time>
      </trkpt>
      <trkpt lat="48.77748" lon="2.73821">
        <ele>114</ele>
        <time>2016-06-05T11:44:58Z</time>
      </trkpt>
      <trkpt lat="48.77747" lon="2.73828">
        <ele>114</ele>
        <time>2016-06-05T11:45:02Z</time>
      </trkpt>
      <trkpt lat="48.77743" lon="2.73841">
        <ele>114</ele>
        <time>2016-06-05T11:45:09Z</time>
      </trkpt>
      <trkpt lat="48.77743" lon="2.73856">
        <ele>114</ele>
        <time>2016-06-05T11:45:18Z</time>
      </trkpt>
      <trkpt lat="48.77746" lon="2.73863">
        <ele>114</ele>
        <time>2016-06-05T11:45:21Z</time>
      </trkpt>
      <trkpt lat="48.77746" lon="2.7387">
        <ele>114</ele>
        <time>2016-06-05T11:45:25Z</time>
      </trkpt>
      <trkpt lat="48.77737" lon="2.73914">
        <ele>114</ele>
        <time>2016-06-05T11:45:47Z</time>
      </trkpt>
      <trkpt lat="48.77746" lon="2.73943">
        <ele>114</ele>
        <time>2016-06-05T11:46:01Z</time>
      </trkpt>
      <trkpt lat="48.77743" lon="2.73951">
        <ele>113</ele>
        <time>2016-06-05T11:46:10Z</time>
      </trkpt>
      <trkpt lat="48.77735" lon="2.73954">
        <ele>114</ele>
        <time>2016-06-05T11:46:19Z</time>
      </trkpt>
      <trkpt lat="48.77733" lon="2.7396">
        <ele>113</ele>
        <time>2016-06-05T11:46:24Z</time>
      </trkpt>
      <trkpt lat="48.7773" lon="2.73965">
        <ele>113</ele>
        <time>2016-06-05T11:46:31Z</time>
      </trkpt>
      <trkpt lat="48.77726" lon="2.73968">
        <ele>113</ele>
        <time>2016-06-05T11:46:35Z</time>
      </trkpt>
      <trkpt lat="48.77694" lon="2.7402">
        <ele>113</ele>
        <time>2016-06-05T11:47:08Z</time>
      </trkpt>
      <trkpt lat="48.77666" lon="2.74062">
        <ele>113</ele>
        <time>2016-06-05T11:47:38Z</time>
      </trkpt>
      <trkpt lat="48.77662" lon="2.74076">
        <ele>113</ele>
        <time>2016-06-05T11:47:47Z</time>
      </trkpt>
      <trkpt lat="48.77636" lon="2.74105">
        <ele>113</ele>
        <time>2016-06-05T11:48:12Z</time>
      </trkpt>
      <trkpt lat="48.77616" lon="2.74128">
        <ele>113</ele>
        <time>2016-06-05T11:48:37Z</time>
      </trkpt>
      <trkpt lat="48.77615" lon="2.74136">
        <ele>113</ele>
        <time>2016-06-05T11:48:42Z</time>
      </trkpt>
      <trkpt lat="48.77611" lon="2.74141">
        <ele>113</ele>
        <time>2016-06-05T11:48:47Z</time>
      </trkpt>
      <trkpt lat="48.77602" lon="2.74163">
        <ele>113</ele>
        <time>2016-06-05T11:49:39Z</time>
      </trkpt>
      <trkpt lat="48.77594" lon="2.74184">
        <ele>113</ele>
        <time>2016-06-05T11:49:53Z</time>
      </trkpt>
      <trkpt lat="48.77593" lon="2.74213">
        <ele>113</ele>
        <time>2016-06-05T11:50:09Z</time>
      </trkpt>
      <trkpt lat="48.77578" lon="2.74268">
        <ele>113</ele>
        <time>2016-06-05T11:50:49Z</time>
      </trkpt>
      <trkpt lat="48.7757" lon="2.74306">
        <ele>113</ele>
        <time>2016-06-05T11:51:30Z</time>
      </trkpt>
      <trkpt lat="48.77567" lon="2.74321">
        <ele>113</ele>
        <time>2016-06-05T11:51:42Z</time>
      </trkpt>
      <trkpt lat="48.77568" lon="2.74335">
        <ele>113</ele>
        <time>2016-06-05T11:51:49Z</time>
      </trkpt>
      <trkpt lat="48.77559" lon="2.74369">
        <ele>113</ele>
        <time>2016-06-05T11:52:32Z</time>
      </trkpt>
      <trkpt lat="48.77555" lon="2.74411">
        <ele>114</ele>
        <time>2016-06-05T11:53:22Z</time>
      </trkpt>
      <trkpt lat="48.77552" lon="2.74428">
        <ele>114</ele>
        <time>2016-06-05T11:53:55Z</time>
      </trkpt>
      <trkpt lat="48.77538" lon="2.74481">
        <ele>114</ele>
        <time>2016-06-05T11:54:26Z</time>
      </trkpt>
      <trkpt lat="48.77531" lon="2.74491">
        <ele>114</ele>
        <time>2016-06-05T11:54:35Z</time>
      </trkpt>
      <trkpt lat="48.77509" lon="2.74529">
        <ele>114</ele>
        <time>2016-06-05T11:55:07Z</time>
      </trkpt>
      <trkpt lat="48.77508" lon="2.74536">
        <ele>114</ele>
        <time>2016-06-05T11:55:11Z</time>
      </trkpt>
      <trkpt lat="48.77484" lon="2.74574">
        <ele>114</ele>
        <time>2016-06-05T11:55:42Z</time>
      </trkpt>
      <trkpt lat="48.77458" lon="2.7461">
        <ele>115</ele>
        <time>2016-06-05T11:56:10Z</time>
      </trkpt>
      <trkpt lat="48.77442" lon="2.74647">
        <ele>114</ele>
        <time>2016-06-05T11:56:47Z</time>
      </trkpt>
      <trkpt lat="48.77434" lon="2.74656">
        <ele>114</ele>
        <time>2016-06-05T11:57:00Z</time>
      </trkpt>
      <trkpt lat="48.77435" lon="2.74672">
        <ele>114</ele>
        <time>2016-06-05T11:57:29Z</time>
      </trkpt>
      <trkpt lat="48.77437" lon="2.74679">
        <ele>115</ele>
        <time>2016-06-05T11:57:40Z</time>
      </trkpt>
      <trkpt lat="48.77433" lon="2.74708">
        <ele>114</ele>
        <time>2016-06-05T11:58:02Z</time>
      </trkpt>
      <trkpt lat="48.77412" lon="2.74754">
        <ele>114</ele>
        <time>2016-06-05T11:58:35Z</time>
      </trkpt>
      <trkpt lat="48.77407" lon="2.74754">
        <ele>114</ele>
        <time>2016-06-05T11:59:08Z</time>
      </trkpt>
      <trkpt lat="48.77405" lon="2.74759">
        <ele>114</ele>
        <time>2016-06-05T12:00:42Z</time>
      </trkpt>
      <trkpt lat="48.77404" lon="2.74776">
        <ele>114</ele>
        <time>2016-06-05T12:01:04Z</time>
      </trkpt>
      <trkpt lat="48.77391" lon="2.74796">
        <ele>115</ele>
        <time>2016-06-05T12:01:21Z</time>
      </trkpt>
      <trkpt lat="48.77383" lon="2.74825">
        <ele>115</ele>
        <time>2016-06-05T12:01:57Z</time>
      </trkpt>
      <trkpt lat="48.77376" lon="2.74834">
        <ele>115</ele>
        <time>2016-06-05T12:02:11Z</time>
      </trkpt>
      <trkpt lat="48.77363" lon="2.74844">
        <ele>115</ele>
        <time>2016-06-05T12:02:31Z</time>
      </trkpt>
      <trkpt lat="48.77348" lon="2.74877">
        <ele>115</ele>
        <time>2016-06-05T12:03:04Z</time>
      </trkpt>
      <trkpt lat="48.77332" lon="2.74914">
        <ele>115</ele>
        <time>2016-06-05T12:03:36Z</time>
      </trkpt>
      <trkpt lat="48.77326" lon="2.74923">
        <ele>115</ele>
        <time>2016-06-05T12:03:50Z</time>
      </trkpt>
      <trkpt lat="48.77318" lon="2.7496">
        <ele>115</ele>
        <time>2016-06-05T12:04:13Z</time>
      </trkpt>
      <trkpt lat="48.77298" lon="2.74989">
        <ele>116</ele>
        <time>2016-06-05T12:04:37Z</time>
      </trkpt>
      <trkpt lat="48.77281" lon="2.7504">
        <ele>115</ele>
        <time>2016-06-05T12:05:13Z</time>
      </trkpt>
      <trkpt lat="48.77278" lon="2.75045">
        <ele>115</ele>
        <time>2016-06-05T12:05:18Z</time>
      </trkpt>
      <trkpt lat="48.77277" lon="2.75052">
        <ele>116</ele>
        <time>2016-06-05T12:05:30Z</time>
      </trkpt>
      <trkpt lat="48.77272" lon="2.75055">
        <ele>116</ele>
        <time>2016-06-05T12:05:35Z</time>
      </trkpt>
      <trkpt lat="48.77275" lon="2.75059">
        <ele>115</ele>
        <time>2016-06-05T12:06:00Z</time>
      </trkpt>
      <trkpt lat="48.77274" lon="2.75059">
        <ele>115</ele>
        <time>2016-06-05T12:07:35Z</time>
      </trkpt>
      <trkpt lat="48.7727" lon="2.75061">
        <ele>115</ele>
        <time>2016-06-05T12:07:46Z</time>
      </trkpt>
      <trkpt lat="48.77271" lon="2.75066">
        <ele>115</ele>
        <time>2016-06-05T12:11:32Z</time>
      </trkpt>
      <trkpt lat="48.77263" lon="2.75106">
        <ele>114</ele>
        <time>2016-06-05T12:12:04Z</time>
      </trkpt>
      <trkpt lat="48.7725" lon="2.75135">
        <ele>114</ele>
        <time>2016-06-05T12:12:30Z</time>
      </trkpt>
      <trkpt lat="48.77242" lon="2.75146">
        <ele>114</ele>
        <time>2016-06-05T12:12:36Z</time>
      </trkpt>
      <trkpt lat="48.77224" lon="2.75206">
        <ele>115</ele>
        <time>2016-06-05T12:14:02Z</time>
      </trkpt>
      <trkpt lat="48.77223" lon="2.75212">
        <ele>115</ele>
        <time>2016-06-05T12:14:22Z</time>
      </trkpt>
      <trkpt lat="48.77218" lon="2.75213">
        <ele>114</ele>
        <time>2016-06-05T12:14:47Z</time>
      </trkpt>
      <trkpt lat="48.77208" lon="2.75213">
        <ele>114</ele>
        <time>2016-06-05T12:14:53Z</time>
      </trkpt>
      <trkpt lat="48.77205" lon="2.7522">
        <ele>114</ele>
        <time>2016-06-05T12:14:56Z</time>
      </trkpt>
      <trkpt lat="48.77204" lon="2.75228">
        <ele>114</ele>
        <time>2016-06-05T12:15:00Z</time>
      </trkpt>
      <trkpt lat="48.77201" lon="2.75233">
        <ele>114</ele>
        <time>2016-06-05T12:15:17Z</time>
      </trkpt>
      <trkpt lat="48.77199" lon="2.7524">
        <ele>114</ele>
        <time>2016-06-05T12:15:21Z</time>
      </trkpt>
      <trkpt lat="48.77196" lon="2.75243">
        <ele>114</ele>
        <time>2016-06-05T12:15:30Z</time>
      </trkpt>
      <trkpt lat="48.77196" lon="2.75247">
        <ele>114</ele>
        <time>2016-06-05T12:15:42Z</time>
      </trkpt>
      <trkpt lat="48.77197" lon="2.75253">
        <ele>114</ele>
        <time>2016-06-05T12:15:51Z</time>
      </trkpt>
      <trkpt lat="48.77195" lon="2.75258">
        <ele>114</ele>
        <time>2016-06-05T12:16:05Z</time>
      </trkpt>
      <trkpt lat="48.77192" lon="2.75263">
        <ele>114</ele>
        <time>2016-06-05T12:16:08Z</time>
      </trkpt>
      <trkpt lat="48.77188" lon="2.7528">
        <ele>114</ele>
        <time>2016-06-05T12:16:22Z</time>
      </trkpt>
      <trkpt lat="48.77187" lon="2.75301">
        <ele>114</ele>
        <time>2016-06-05T12:16:32Z</time>
      </trkpt>
      <trkpt lat="48.7718" lon="2.75319">
        <ele>114</ele>
        <time>2016-06-05T12:16:42Z</time>
      </trkpt>
      <trkpt lat="48.77166" lon="2.75348">
        <ele>114</ele>
        <time>2016-06-05T12:17:21Z</time>
      </trkpt>
      <trkpt lat="48.77146" lon="2.7541">
        <ele>114</ele>
        <time>2016-06-05T12:18:16Z</time>
      </trkpt>
      <trkpt lat="48.77146" lon="2.75425">
        <ele>114</ele>
        <time>2016-06-05T12:18:47Z</time>
      </trkpt>
      <trkpt lat="48.77134" lon="2.75469">
        <ele>115</ele>
        <time>2016-06-05T12:19:26Z</time>
      </trkpt>
      <trkpt lat="48.77117" lon="2.75494">
        <ele>114</ele>
        <time>2016-06-05T12:19:51Z</time>
      </trkpt>
      <trkpt lat="48.77107" lon="2.75539">
        <ele>114</ele>
        <time>2016-06-05T12:20:23Z</time>
      </trkpt>
      <trkpt lat="48.77101" lon="2.75567">
        <ele>114</ele>
        <time>2016-06-05T12:20:37Z</time>
      </trkpt>
      <trkpt lat="48.77097" lon="2.75569">
        <ele>115</ele>
        <time>2016-06-05T12:21:01Z</time>
      </trkpt>
      <trkpt lat="48.77096" lon="2.75578">
        <ele>115</ele>
        <time>2016-06-05T12:21:18Z</time>
      </trkpt>
      <trkpt lat="48.77095" lon="2.75587">
        <ele>114</ele>
        <time>2016-06-05T12:21:21Z</time>
      </trkpt>
      <trkpt lat="48.77074" lon="2.75647">
        <ele>114</ele>
        <time>2016-06-05T12:21:52Z</time>
      </trkpt>
      <trkpt lat="48.77071" lon="2.75659">
        <ele>114</ele>
        <time>2016-06-05T12:21:56Z</time>
      </trkpt>
      <trkpt lat="48.77067" lon="2.75668">
        <ele>112</ele>
        <time>2016-06-05T12:22:03Z</time>
      </trkpt>
      <trkpt lat="48.77064" lon="2.75682">
        <ele>112</ele>
        <time>2016-06-05T12:22:11Z</time>
      </trkpt>
      <trkpt lat="48.7706" lon="2.75691">
        <ele>112</ele>
        <time>2016-06-05T12:22:14Z</time>
      </trkpt>
      <trkpt lat="48.77062" lon="2.75709">
        <ele>111</ele>
        <time>2016-06-05T12:22:23Z</time>
      </trkpt>
      <trkpt lat="48.77065" lon="2.75719">
        <ele>111</ele>
        <time>2016-06-05T12:22:29Z</time>
      </trkpt>
      <trkpt lat="48.77064" lon="2.75723">
        <ele>111</ele>
        <time>2016-06-05T12:22:31Z</time>
      </trkpt>
      <trkpt lat="48.77051" lon="2.75784">
        <ele>111</ele>
        <time>2016-06-05T12:23:06Z</time>
      </trkpt>
      <trkpt lat="48.77045" lon="2.75792">
        <ele>111</ele>
        <time>2016-06-05T12:23:10Z</time>
      </trkpt>
      <trkpt lat="48.7704" lon="2.75794">
        <ele>111</ele>
        <time>2016-06-05T12:23:14Z</time>
      </trkpt>
      <trkpt lat="48.77034" lon="2.75808">
        <ele>111</ele>
        <time>2016-06-05T12:23:20Z</time>
      </trkpt>
      <trkpt lat="48.7702" lon="2.75854">
        <ele>114</ele>
        <time>2016-06-05T12:23:45Z</time>
      </trkpt>
      <trkpt lat="48.77" lon="2.75911">
        <ele>113</ele>
        <time>2016-06-05T12:24:17Z</time>
      </trkpt>
      <trkpt lat="48.76978" lon="2.75965">
        <ele>113</ele>
        <time>2016-06-05T12:24:48Z</time>
      </trkpt>
      <trkpt lat="48.76958" lon="2.76019">
        <ele>112</ele>
        <time>2016-06-05T12:25:18Z</time>
      </trkpt>
      <trkpt lat="48.76933" lon="2.76079">
        <ele>111</ele>
        <time>2016-06-05T12:25:49Z</time>
      </trkpt>
      <trkpt lat="48.76912" lon="2.76137">
        <ele>109</ele>
        <time>2016-06-05T12:26:21Z</time>
      </trkpt>
      <trkpt lat="48.76907" lon="2.7616">
        <ele>109</ele>
        <time>2016-06-05T12:26:33Z</time>
      </trkpt>
      <trkpt lat="48.76891" lon="2.76177">
        <ele>109</ele>
        <time>2016-06-05T12:26:43Z</time>
      </trkpt>
      <trkpt lat="48.7689" lon="2.76188">
        <ele>109</ele>
        <time>2016-06-05T12:26:50Z</time>
      </trkpt>
      <trkpt lat="48.76887" lon="2.76193">
        <ele>109</ele>
        <time>2016-06-05T12:26:52Z</time>
      </trkpt>
      <trkpt lat="48.76883" lon="2.76213">
        <ele>109</ele>
        <time>2016-06-05T12:27:03Z</time>
      </trkpt>
      <trkpt lat="48.7688" lon="2.76236">
        <ele>109</ele>
        <time>2016-06-05T12:27:14Z</time>
      </trkpt>
      <trkpt lat="48.76871" lon="2.76249">
        <ele>109</ele>
        <time>2016-06-05T12:27:22Z</time>
      </trkpt>
      <trkpt lat="48.76864" lon="2.76252">
        <ele>109</ele>
        <time>2016-06-05T12:27:25Z</time>
      </trkpt>
      <trkpt lat="48.76848" lon="2.76278">
        <ele>109</ele>
        <time>2016-06-05T12:27:40Z</time>
      </trkpt>
      <trkpt lat="48.76833" lon="2.76338">
        <ele>111</ele>
        <time>2016-06-05T12:28:15Z</time>
      </trkpt>
      <trkpt lat="48.76823" lon="2.7636">
        <ele>112</ele>
        <time>2016-06-05T12:28:27Z</time>
      </trkpt>
      <trkpt lat="48.76817" lon="2.76365">
        <ele>112</ele>
        <time>2016-06-05T12:28:30Z</time>
      </trkpt>
      <trkpt lat="48.76803" lon="2.76419">
        <ele>112</ele>
        <time>2016-06-05T12:28:58Z</time>
      </trkpt>
      <trkpt lat="48.768" lon="2.76418">
        <ele>112</ele>
        <time>2016-06-05T12:29:05Z</time>
      </trkpt>
      <trkpt lat="48.76798" lon="2.76426">
        <ele>112</ele>
        <time>2016-06-05T12:29:13Z</time>
      </trkpt>
      <trkpt lat="48.76796" lon="2.76434">
        <ele>111</ele>
        <time>2016-06-05T12:29:17Z</time>
      </trkpt>
      <trkpt lat="48.76776" lon="2.76488">
        <ele>111</ele>
        <time>2016-06-05T12:29:50Z</time>
      </trkpt>
      <trkpt lat="48.76754" lon="2.76544">
        <ele>111</ele>
        <time>2016-06-05T12:30:25Z</time>
      </trkpt>
      <trkpt lat="48.76736" lon="2.76604">
        <ele>112</ele>
        <time>2016-06-05T12:30:59Z</time>
      </trkpt>
      <trkpt lat="48.76735" lon="2.76675">
        <ele>111</ele>
        <time>2016-06-05T12:31:33Z</time>
      </trkpt>
      <trkpt lat="48.76736" lon="2.76694">
        <ele>111</ele>
        <time>2016-06-05T12:31:45Z</time>
      </trkpt>
      <trkpt lat="48.76734" lon="2.76718">
        <ele>111</ele>
        <time>2016-06-05T12:31:56Z</time>
      </trkpt>
      <trkpt lat="48.7673" lon="2.76731">
        <ele>111</ele>
        <time>2016-06-05T12:32:05Z</time>
      </trkpt>
      <trkpt lat="48.7673" lon="2.76758">
        <ele>111</ele>
        <time>2016-06-05T12:32:18Z</time>
      </trkpt>
      <trkpt lat="48.7673" lon="2.76788">
        <ele>110</ele>
        <time>2016-06-05T12:32:33Z</time>
      </trkpt>
      <trkpt lat="48.76734" lon="2.76799">
        <ele>110</ele>
        <time>2016-06-05T12:32:39Z</time>
      </trkpt>
      <trkpt lat="48.76732" lon="2.76839">
        <ele>110</ele>
        <time>2016-06-05T12:32:55Z</time>
      </trkpt>
      <trkpt lat="48.76729" lon="2.76869">
        <ele>110</ele>
        <time>2016-06-05T12:33:12Z</time>
      </trkpt>
      <trkpt lat="48.76732" lon="2.76878">
        <ele>110</ele>
        <time>2016-06-05T12:33:18Z</time>
      </trkpt>
      <trkpt lat="48.7673" lon="2.76909">
        <ele>110</ele>
        <time>2016-06-05T12:33:31Z</time>
      </trkpt>
      <trkpt lat="48.76716" lon="2.76951">
        <ele>110</ele>
        <time>2016-06-05T12:33:57Z</time>
      </trkpt>
      <trkpt lat="48.76691" lon="2.76977">
        <ele>110</ele>
        <time>2016-06-05T12:34:21Z</time>
      </trkpt>
      <trkpt lat="48.76685" lon="2.76977">
        <ele>110</ele>
        <time>2016-06-05T12:34:24Z</time>
      </trkpt>
      <trkpt lat="48.76655" lon="2.77017">
        <ele>109</ele>
        <time>2016-06-05T12:34:56Z</time>
      </trkpt>
      <trkpt lat="48.76649" lon="2.77028">
        <ele>109</ele>
        <time>2016-06-05T12:35:00Z</time>
      </trkpt>
      <trkpt lat="48.76615" lon="2.77068">
        <ele>110</ele>
        <time>2016-06-05T12:35:32Z</time>
      </trkpt>
      <trkpt lat="48.76601" lon="2.7708">
        <ele>109</ele>
        <time>2016-06-05T12:35:44Z</time>
      </trkpt>
      <trkpt lat="48.76598" lon="2.7708">
        <ele>109</ele>
        <time>2016-06-05T12:35:50Z</time>
      </trkpt>
      <trkpt lat="48.76591" lon="2.77085">
        <ele>109</ele>
        <time>2016-06-05T12:35:56Z</time>
      </trkpt>
      <trkpt lat="48.76585" lon="2.77087">
        <ele>109</ele>
        <time>2016-06-05T12:36:00Z</time>
      </trkpt>
      <trkpt lat="48.76575" lon="2.77108">
        <ele>109</ele>
        <time>2016-06-05T12:36:10Z</time>
      </trkpt>
      <trkpt lat="48.76556" lon="2.77124">
        <ele>109</ele>
        <time>2016-06-05T12:36:25Z</time>
      </trkpt>
      <trkpt lat="48.76554" lon="2.7713">
        <ele>108</ele>
        <time>2016-06-05T12:36:31Z</time>
      </trkpt>
      <trkpt lat="48.76533" lon="2.77157">
        <ele>108</ele>
        <time>2016-06-05T12:36:49Z</time>
      </trkpt>
      <trkpt lat="48.7651" lon="2.77175">
        <ele>107</ele>
        <time>2016-06-05T12:37:14Z</time>
      </trkpt>
      <trkpt lat="48.76511" lon="2.7718">
        <ele>107</ele>
        <time>2016-06-05T12:39:37Z</time>
      </trkpt>
      <trkpt lat="48.76505" lon="2.7718">
        <ele>107</ele>
        <time>2016-06-05T12:39:40Z</time>
      </trkpt>
      <trkpt lat="48.76497" lon="2.77195">
        <ele>106</ele>
        <time>2016-06-05T12:39:53Z</time>
      </trkpt>
      <trkpt lat="48.76447" lon="2.77212">
        <ele>107</ele>
        <time>2016-06-05T12:40:26Z</time>
      </trkpt>
      <trkpt lat="48.76415" lon="2.77217">
        <ele>106</ele>
        <time>2016-06-05T12:40:56Z</time>
      </trkpt>
      <trkpt lat="48.76392" lon="2.77213">
        <ele>106</ele>
        <time>2016-06-05T12:41:14Z</time>
      </trkpt>
      <trkpt lat="48.76378" lon="2.77222">
        <ele>106</ele>
        <time>2016-06-05T12:41:27Z</time>
      </trkpt>
      <trkpt lat="48.76373" lon="2.77221">
        <ele>106</ele>
        <time>2016-06-05T12:41:37Z</time>
      </trkpt>
      <trkpt lat="48.76368" lon="2.77224">
        <ele>106</ele>
        <time>2016-06-05T12:41:42Z</time>
      </trkpt>
      <trkpt lat="48.76364" lon="2.77229">
        <ele>106</ele>
        <time>2016-06-05T12:41:46Z</time>
      </trkpt>
      <trkpt lat="48.76357" lon="2.7725">
        <ele>107</ele>
        <time>2016-06-05T12:41:59Z</time>
      </trkpt>
      <trkpt lat="48.76357" lon="2.77259">
        <ele>107</ele>
        <time>2016-06-05T12:42:04Z</time>
      </trkpt>
      <trkpt lat="48.76346" lon="2.77318">
        <ele>107</ele>
        <time>2016-06-05T12:42:34Z</time>
      </trkpt>
      <trkpt lat="48.76346" lon="2.77334">
        <ele>107</ele>
        <time>2016-06-05T12:42:40Z</time>
      </trkpt>
      <trkpt lat="48.76351" lon="2.7734">
        <ele>107</ele>
        <time>2016-06-05T12:42:46Z</time>
      </trkpt>
      <trkpt lat="48.76348" lon="2.77345">
        <ele>106</ele>
        <time>2016-06-05T12:42:50Z</time>
      </trkpt>
      <trkpt lat="48.7632" lon="2.77403">
        <ele>106</ele>
        <time>2016-06-05T12:43:18Z</time>
      </trkpt>
      <trkpt lat="48.76316" lon="2.77403">
        <ele>106</ele>
        <time>2016-06-05T12:43:19Z</time>
      </trkpt>
      <trkpt lat="48.76307" lon="2.77397">
        <ele>105</ele>
        <time>2016-06-05T12:43:26Z</time>
      </trkpt>
      <trkpt lat="48.7629" lon="2.77402">
        <ele>104</ele>
        <time>2016-06-05T12:43:41Z</time>
      </trkpt>
      <trkpt lat="48.76286" lon="2.77408">
        <ele>104</ele>
        <time>2016-06-05T12:43:45Z</time>
      </trkpt>
      <trkpt lat="48.76282" lon="2.77423">
        <ele>103</ele>
        <time>2016-06-05T12:43:51Z</time>
      </trkpt>
      <trkpt lat="48.7626" lon="2.77433">
        <ele>103</ele>
        <time>2016-06-05T12:44:06Z</time>
      </trkpt>
      <trkpt lat="48.76254" lon="2.77432">
        <ele>102</ele>
        <time>2016-06-05T12:44:10Z</time>
      </trkpt>
      <trkpt lat="48.76225" lon="2.774">
        <ele>102</ele>
        <time>2016-06-05T12:44:41Z</time>
      </trkpt>
      <trkpt lat="48.76219" lon="2.77395">
        <ele>102</ele>
        <time>2016-06-05T12:44:47Z</time>
      </trkpt>
      <trkpt lat="48.76214" lon="2.77396">
        <ele>101</ele>
        <time>2016-06-05T12:44:49Z</time>
      </trkpt>
      <trkpt lat="48.76211" lon="2.77403">
        <ele>101</ele>
        <time>2016-06-05T12:44:56Z</time>
      </trkpt>
      <trkpt lat="48.7621" lon="2.77415">
        <ele>101</ele>
        <time>2016-06-05T12:45:00Z</time>
      </trkpt>
      <trkpt lat="48.76209" lon="2.77422">
        <ele>100</ele>
        <time>2016-06-05T12:45:07Z</time>
      </trkpt>
      <trkpt lat="48.76187" lon="2.77463">
        <ele>98</ele>
        <time>2016-06-05T12:45:32Z</time>
      </trkpt>
      <trkpt lat="48.76188" lon="2.7747">
        <ele>98</ele>
        <time>2016-06-05T12:45:38Z</time>
      </trkpt>
      <trkpt lat="48.76186" lon="2.77478">
        <ele>98</ele>
        <time>2016-06-05T12:45:42Z</time>
      </trkpt>
      <trkpt lat="48.76142" lon="2.77527">
        <ele>97</ele>
        <time>2016-06-05T12:46:15Z</time>
      </trkpt>
      <trkpt lat="48.76142" lon="2.77532">
        <ele>97</ele>
        <time>2016-06-05T12:46:17Z</time>
      </trkpt>
      <trkpt lat="48.76143" lon="2.77535">
        <ele>97</ele>
        <time>2016-06-05T12:46:18Z</time>
      </trkpt>
      <trkpt lat="48.7615" lon="2.77544">
        <ele>97</ele>
        <time>2016-06-05T12:46:25Z</time>
      </trkpt>
      <trkpt lat="48.76157" lon="2.77547">
        <ele>97</ele>
        <time>2016-06-05T12:46:31Z</time>
      </trkpt>
      <trkpt lat="48.7616" lon="2.77554">
        <ele>97</ele>
        <time>2016-06-05T12:46:36Z</time>
      </trkpt>
      <trkpt lat="48.76198" lon="2.77577">
        <ele>97</ele>
        <time>2016-06-05T12:47:08Z</time>
      </trkpt>
      <trkpt lat="48.76244" lon="2.77596">
        <ele>97</ele>
        <time>2016-06-05T12:47:40Z</time>
      </trkpt>
      <trkpt lat="48.76278" lon="2.77628">
        <ele>97</ele>
        <time>2016-06-05T12:48:12Z</time>
      </trkpt>
      <trkpt lat="48.76288" lon="2.7763">
        <ele>97</ele>
        <time>2016-06-05T12:48:21Z</time>
      </trkpt>
      <trkpt lat="48.76294" lon="2.77635">
        <ele>97</ele>
        <time>2016-06-05T12:48:27Z</time>
      </trkpt>
      <trkpt lat="48.76301" lon="2.77653">
        <ele>97</ele>
        <time>2016-06-05T12:48:36Z</time>
      </trkpt>
      <trkpt lat="48.76314" lon="2.77706">
        <ele>95</ele>
        <time>2016-06-05T12:49:01Z</time>
      </trkpt>
      <trkpt lat="48.76313" lon="2.77716">
        <ele>95</ele>
        <time>2016-06-05T12:49:08Z</time>
      </trkpt>
      <trkpt lat="48.76316" lon="2.77723">
        <ele>95</ele>
        <time>2016-06-05T12:49:12Z</time>
      </trkpt>
      <trkpt lat="48.7632" lon="2.77726">
        <ele>95</ele>
        <time>2016-06-05T12:49:14Z</time>
      </trkpt>
      <trkpt lat="48.76324" lon="2.77737">
        <ele>95</ele>
        <time>2016-06-05T12:49:20Z</time>
      </trkpt>
      <trkpt lat="48.76323" lon="2.77744">
        <ele>95</ele>
        <time>2016-06-05T12:49:24Z</time>
      </trkpt>
      <trkpt lat="48.76321" lon="2.77751">
        <ele>95</ele>
        <time>2016-06-05T12:49:28Z</time>
      </trkpt>
      <trkpt lat="48.76318" lon="2.77774">
        <ele>95</ele>
        <time>2016-06-05T12:49:39Z</time>
      </trkpt>
      <trkpt lat="48.76321" lon="2.77781">
        <ele>95</ele>
        <time>2016-06-05T12:49:45Z</time>
      </trkpt>
      <trkpt lat="48.76324" lon="2.77783">
        <ele>95</ele>
        <time>2016-06-05T12:49:47Z</time>
      </trkpt>
      <trkpt lat="48.76336" lon="2.77788">
        <ele>95</ele>
        <time>2016-06-05T12:49:59Z</time>
      </trkpt>
      <trkpt lat="48.7635" lon="2.77809">
        <ele>95</ele>
        <time>2016-06-05T12:50:11Z</time>
      </trkpt>
      <trkpt lat="48.76353" lon="2.77811">
        <ele>95</ele>
        <time>2016-06-05T12:50:17Z</time>
      </trkpt>
      <trkpt lat="48.76356" lon="2.77817">
        <ele>95</ele>
        <time>2016-06-05T12:50:22Z</time>
      </trkpt>
      <trkpt lat="48.76361" lon="2.77829">
        <ele>96</ele>
        <time>2016-06-05T12:50:31Z</time>
      </trkpt>
      <trkpt lat="48.76368" lon="2.77832">
        <ele>96</ele>
        <time>2016-06-05T12:50:36Z</time>
      </trkpt>
      <trkpt lat="48.76377" lon="2.77837">
        <ele>96</ele>
        <time>2016-06-05T12:50:48Z</time>
      </trkpt>
      <trkpt lat="48.7639" lon="2.77858">
        <ele>97</ele>
        <time>2016-06-05T12:50:59Z</time>
      </trkpt>
      <trkpt lat="48.76396" lon="2.77916">
        <ele>100</ele>
        <time>2016-06-05T12:51:32Z</time>
      </trkpt>
      <trkpt lat="48.76395" lon="2.77978">
        <ele>104</ele>
        <time>2016-06-05T12:52:05Z</time>
      </trkpt>
      <trkpt lat="48.76392" lon="2.78018">
        <ele>106</ele>
        <time>2016-06-05T12:52:31Z</time>
      </trkpt>
      <trkpt lat="48.76387" lon="2.78023">
        <ele>106</ele>
        <time>2016-06-05T12:52:35Z</time>
      </trkpt>
      <trkpt lat="48.76371" lon="2.78024">
        <ele>106</ele>
        <time>2016-06-05T12:52:47Z</time>
      </trkpt>
      <trkpt lat="48.76328" lon="2.7801">
        <ele>106</ele>
        <time>2016-06-05T12:53:18Z</time>
      </trkpt>
      <trkpt lat="48.76294" lon="2.77994">
        <ele>106</ele>
        <time>2016-06-05T12:53:48Z</time>
      </trkpt>
      <trkpt lat="48.76258" lon="2.77985">
        <ele>107</ele>
        <time>2016-06-05T12:54:20Z</time>
      </trkpt>
      <trkpt lat="48.76214" lon="2.77975">
        <ele>108</ele>
        <time>2016-06-05T12:54:52Z</time>
      </trkpt>
      <trkpt lat="48.76179" lon="2.77957">
        <ele>108</ele>
        <time>2016-06-05T12:55:22Z</time>
      </trkpt>
      <trkpt lat="48.76136" lon="2.77947">
        <ele>108</ele>
        <time>2016-06-05T12:55:55Z</time>
      </trkpt>
      <trkpt lat="48.76095" lon="2.77937">
        <ele>108</ele>
        <time>2016-06-05T12:56:28Z</time>
      </trkpt>
      <trkpt lat="48.76046" lon="2.77928">
        <ele>107</ele>
        <time>2016-06-05T12:57:02Z</time>
      </trkpt>
      <trkpt lat="48.76042" lon="2.77933">
        <ele>107</ele>
        <time>2016-06-05T12:57:11Z</time>
      </trkpt>
      <trkpt lat="48.7604" lon="2.7794">
        <ele>106</ele>
        <time>2016-06-05T12:57:20Z</time>
      </trkpt>
      <trkpt lat="48.76037" lon="2.77945">
        <ele>106</ele>
        <time>2016-06-05T12:57:25Z</time>
      </trkpt>
      <trkpt lat="48.76037" lon="2.7797">
        <ele>107</ele>
        <time>2016-06-05T12:57:37Z</time>
      </trkpt>
      <trkpt lat="48.76041" lon="2.77982">
        <ele>107</ele>
        <time>2016-06-05T12:57:44Z</time>
      </trkpt>
      <trkpt lat="48.7604" lon="2.7804">
        <ele>108</ele>
        <time>2016-06-05T12:58:12Z</time>
      </trkpt>
      <trkpt lat="48.76038" lon="2.78046">
        <ele>109</ele>
        <time>2016-06-05T12:58:17Z</time>
      </trkpt>
      <trkpt lat="48.7604" lon="2.78061">
        <ele>109</ele>
        <time>2016-06-05T12:58:25Z</time>
      </trkpt>
      <trkpt lat="48.76045" lon="2.78068">
        <ele>109</ele>
        <time>2016-06-05T12:58:30Z</time>
      </trkpt>
      <trkpt lat="48.76045" lon="2.78075">
        <ele>110</ele>
        <time>2016-06-05T12:58:35Z</time>
      </trkpt>
      <trkpt lat="48.76047" lon="2.78106">
        <ele>111</ele>
        <time>2016-06-05T12:58:51Z</time>
      </trkpt>
      <trkpt lat="48.7604" lon="2.78127">
        <ele>112</ele>
        <time>2016-06-05T12:59:07Z</time>
      </trkpt>
      <trkpt lat="48.76046" lon="2.78165">
        <ele>112</ele>
        <time>2016-06-05T12:59:28Z</time>
      </trkpt>
      <trkpt lat="48.76039" lon="2.78178">
        <ele>112</ele>
        <time>2016-06-05T12:59:35Z</time>
      </trkpt>
      <trkpt lat="48.76035" lon="2.78187">
        <ele>113</ele>
        <time>2016-06-05T12:59:40Z</time>
      </trkpt>
      <trkpt lat="48.76034" lon="2.78193">
        <ele>113</ele>
        <time>2016-06-05T12:59:42Z</time>
      </trkpt>
      <trkpt lat="48.76035" lon="2.782">
        <ele>113</ele>
        <time>2016-06-05T12:59:44Z</time>
      </trkpt>
      <trkpt lat="48.76034" lon="2.78209">
        <ele>113</ele>
        <time>2016-06-05T12:59:51Z</time>
      </trkpt>
      <trkpt lat="48.76037" lon="2.78225">
        <ele>113</ele>
        <time>2016-06-05T13:00:00Z</time>
      </trkpt>
      <trkpt lat="48.76037" lon="2.78233">
        <ele>114</ele>
        <time>2016-06-05T13:00:05Z</time>
      </trkpt>
      <trkpt lat="48.76043" lon="2.78299">
        <ele>115</ele>
        <time>2016-06-05T13:00:36Z</time>
      </trkpt>
      <trkpt lat="48.76044" lon="2.78304">
        <ele>115</ele>
        <time>2016-06-05T13:00:38Z</time>
      </trkpt>
      <trkpt lat="48.76034" lon="2.7836">
        <ele>116</ele>
        <time>2016-06-05T13:01:10Z</time>
      </trkpt>
      <trkpt lat="48.76034" lon="2.78387">
        <ele>116</ele>
        <time>2016-06-05T13:01:24Z</time>
      </trkpt>
      <trkpt lat="48.76041" lon="2.78401">
        <ele>116</ele>
        <time>2016-06-05T13:01:31Z</time>
      </trkpt>
      <trkpt lat="48.76038" lon="2.78434">
        <ele>116</ele>
        <time>2016-06-05T13:01:50Z</time>
      </trkpt>
      <trkpt lat="48.76032" lon="2.78446">
        <ele>116</ele>
        <time>2016-06-05T13:01:59Z</time>
      </trkpt>
      <trkpt lat="48.76035" lon="2.78452">
        <ele>116</ele>
        <time>2016-06-05T13:02:06Z</time>
      </trkpt>
      <trkpt lat="48.76039" lon="2.78453">
        <ele>116</ele>
        <time>2016-06-05T13:03:00Z</time>
      </trkpt>
      <trkpt lat="48.76042" lon="2.78451">
        <ele>116</ele>
        <time>2016-06-05T13:04:10Z</time>
      </trkpt>
      <trkpt lat="48.7601" lon="2.78443">
        <ele>116</ele>
        <time>2016-06-05T13:10:44Z</time>
      </trkpt>
      <trkpt lat="48.76001" lon="2.78443">
        <ele>116</ele>
        <time>2016-06-05T13:10:51Z</time>
      </trkpt>
      <trkpt lat="48.75955" lon="2.78437">
        <ele>116</ele>
        <time>2016-06-05T13:11:21Z</time>
      </trkpt>
      <trkpt lat="48.75919" lon="2.78418">
        <ele>116</ele>
        <time>2016-06-05T13:11:53Z</time>
      </trkpt>
      <trkpt lat="48.7587" lon="2.78404">
        <ele>116</ele>
        <time>2016-06-05T13:12:27Z</time>
      </trkpt>
      <trkpt lat="48.7583" lon="2.78383">
        <ele>115</ele>
        <time>2016-06-05T13:12:57Z</time>
      </trkpt>
      <trkpt lat="48.75827" lon="2.78378">
        <ele>115</ele>
        <time>2016-06-05T13:13:01Z</time>
      </trkpt>
      <trkpt lat="48.75819" lon="2.78373">
        <ele>115</ele>
        <time>2016-06-05T13:13:07Z</time>
      </trkpt>
      <trkpt lat="48.75804" lon="2.78372">
        <ele>115</ele>
        <time>2016-06-05T13:13:16Z</time>
      </trkpt>
      <trkpt lat="48.7579" lon="2.78365">
        <ele>115</ele>
        <time>2016-06-05T13:13:24Z</time>
      </trkpt>
      <trkpt lat="48.75778" lon="2.78365">
        <ele>115</ele>
        <time>2016-06-05T13:13:34Z</time>
      </trkpt>
      <trkpt lat="48.75774" lon="2.78359">
        <ele>114</ele>
        <time>2016-06-05T13:13:39Z</time>
      </trkpt>
      <trkpt lat="48.7577" lon="2.78356">
        <ele>113</ele>
        <time>2016-06-05T13:13:43Z</time>
      </trkpt>
      <trkpt lat="48.75728" lon="2.78346">
        <ele>112</ele>
        <time>2016-06-05T13:14:10Z</time>
      </trkpt>
      <trkpt lat="48.75713" lon="2.78338">
        <ele>107</ele>
        <time>2016-06-05T13:14:25Z</time>
      </trkpt>
      <trkpt lat="48.75693" lon="2.78333">
        <ele>107</ele>
        <time>2016-06-05T13:14:43Z</time>
      </trkpt>
      <trkpt lat="48.75698" lon="2.78334">
        <ele>107</ele>
        <time>2016-06-05T13:15:18Z</time>
      </trkpt>
      <trkpt lat="48.75708" lon="2.78345">
        <ele>107</ele>
        <time>2016-06-05T13:15:29Z</time>
      </trkpt>
      <trkpt lat="48.75722" lon="2.78347">
        <ele>106</ele>
        <time>2016-06-05T13:15:38Z</time>
      </trkpt>
      <trkpt lat="48.75724" lon="2.78351">
        <ele>106</ele>
        <time>2016-06-05T13:15:40Z</time>
      </trkpt>
      <trkpt lat="48.75721" lon="2.78361">
        <ele>106</ele>
        <time>2016-06-05T13:15:45Z</time>
      </trkpt>
      <trkpt lat="48.75707" lon="2.78382">
        <ele>107</ele>
        <time>2016-06-05T13:16:00Z</time>
      </trkpt>
      <trkpt lat="48.75696" lon="2.78399">
        <ele>109</ele>
        <time>2016-06-05T13:16:12Z</time>
      </trkpt>
      <trkpt lat="48.75686" lon="2.78418">
        <ele>109</ele>
        <time>2016-06-05T13:16:25Z</time>
      </trkpt>
      <trkpt lat="48.75662" lon="2.78461">
        <ele>108</ele>
        <time>2016-06-05T13:16:57Z</time>
      </trkpt>
      <trkpt lat="48.7566" lon="2.78466">
        <ele>107</ele>
        <time>2016-06-05T13:16:59Z</time>
      </trkpt>
      <trkpt lat="48.75658" lon="2.78481">
        <ele>107</ele>
        <time>2016-06-05T13:17:09Z</time>
      </trkpt>
      <trkpt lat="48.75631" lon="2.78527">
        <ele>107</ele>
        <time>2016-06-05T13:17:39Z</time>
      </trkpt>
      <trkpt lat="48.75601" lon="2.78578">
        <ele>107</ele>
        <time>2016-06-05T13:18:13Z</time>
      </trkpt>
      <trkpt lat="48.75582" lon="2.78613">
        <ele>108</ele>
        <time>2016-06-05T13:18:36Z</time>
      </trkpt>
      <trkpt lat="48.75568" lon="2.78632">
        <ele>108</ele>
        <time>2016-06-05T13:18:52Z</time>
      </trkpt>
      <trkpt lat="48.75567" lon="2.78641">
        <ele>108</ele>
        <time>2016-06-05T13:18:56Z</time>
      </trkpt>
      <trkpt lat="48.75555" lon="2.78663">
        <ele>108</ele>
        <time>2016-06-05T13:19:11Z</time>
      </trkpt>
      <trkpt lat="48.7554" lon="2.78673">
        <ele>108</ele>
        <time>2016-06-05T13:19:23Z</time>
      </trkpt>
      <trkpt lat="48.75537" lon="2.7868">
        <ele>108</ele>
        <time>2016-06-05T13:19:28Z</time>
      </trkpt>
      <trkpt lat="48.7553" lon="2.78701">
        <ele>107</ele>
        <time>2016-06-05T13:19:40Z</time>
      </trkpt>
      <trkpt lat="48.75531" lon="2.78708">
        <ele>107</ele>
        <time>2016-06-05T13:19:51Z</time>
      </trkpt>
      <trkpt lat="48.75528" lon="2.78714">
        <ele>107</ele>
        <time>2016-06-05T13:19:55Z</time>
      </trkpt>
      <trkpt lat="48.75519" lon="2.78732">
        <ele>106</ele>
        <time>2016-06-05T13:20:06Z</time>
      </trkpt>
      <trkpt lat="48.75497" lon="2.78788">
        <ele>107</ele>
        <time>2016-06-05T13:20:39Z</time>
      </trkpt>
      <trkpt lat="48.75489" lon="2.788">
        <ele>108</ele>
        <time>2016-06-05T13:20:47Z</time>
      </trkpt>
      <trkpt lat="48.75484" lon="2.78814">
        <ele>108</ele>
        <time>2016-06-05T13:20:53Z</time>
      </trkpt>
      <trkpt lat="48.75478" lon="2.78819">
        <ele>108</ele>
        <time>2016-06-05T13:21:00Z</time>
      </trkpt>
      <trkpt lat="48.75454" lon="2.78863">
        <ele>109</ele>
        <time>2016-06-05T13:21:31Z</time>
      </trkpt>
      <trkpt lat="48.75448" lon="2.78872">
        <ele>109</ele>
        <time>2016-06-05T13:21:35Z</time>
      </trkpt>
      <trkpt lat="48.75425" lon="2.78915">
        <ele>110</ele>
        <time>2016-06-05T13:22:08Z</time>
      </trkpt>
      <trkpt lat="48.75401" lon="2.78969">
        <ele>110</ele>
        <time>2016-06-05T13:22:41Z</time>
      </trkpt>
      <trkpt lat="48.75372" lon="2.79018">
        <ele>110</ele>
        <time>2016-06-05T13:23:13Z</time>
      </trkpt>
      <trkpt lat="48.75346" lon="2.79068">
        <ele>111</ele>
        <time>2016-06-05T13:23:46Z</time>
      </trkpt>
      <trkpt lat="48.75344" lon="2.79076">
        <ele>111</ele>
        <time>2016-06-05T13:23:53Z</time>
      </trkpt>
      <trkpt lat="48.75335" lon="2.79087">
        <ele>111</ele>
        <time>2016-06-05T13:24:02Z</time>
      </trkpt>
      <trkpt lat="48.75333" lon="2.79092">
        <ele>111</ele>
        <time>2016-06-05T13:24:11Z</time>
      </trkpt>
      <trkpt lat="48.75329" lon="2.79094">
        <ele>111</ele>
        <time>2016-06-05T13:24:54Z</time>
      </trkpt>
      <trkpt lat="48.75325" lon="2.79089">
        <ele>111</ele>
        <time>2016-06-05T13:25:15Z</time>
      </trkpt>
      <trkpt lat="48.7532" lon="2.79087">
        <ele>111</ele>
        <time>2016-06-05T13:25:20Z</time>
      </trkpt>
      <trkpt lat="48.75304" lon="2.7906">
        <ele>110</ele>
        <time>2016-06-05T13:25:37Z</time>
      </trkpt>
      <trkpt lat="48.75301" lon="2.79047">
        <ele>110</ele>
        <time>2016-06-05T13:25:43Z</time>
      </trkpt>
      <trkpt lat="48.75289" lon="2.79032">
        <ele>110</ele>
        <time>2016-06-05T13:25:53Z</time>
      </trkpt>
      <trkpt lat="48.75288" lon="2.79022">
        <ele>110</ele>
        <time>2016-06-05T13:26:00Z</time>
      </trkpt>
      <trkpt lat="48.75283" lon="2.79014">
        <ele>110</ele>
        <time>2016-06-05T13:26:04Z</time>
      </trkpt>
      <trkpt lat="48.75248" lon="2.78963">
        <ele>108</ele>
        <time>2016-06-05T13:26:39Z</time>
      </trkpt>
      <trkpt lat="48.7522" lon="2.78913">
        <ele>105</ele>
        <time>2016-06-05T13:27:12Z</time>
      </trkpt>
      <trkpt lat="48.75216" lon="2.78905">
        <ele>105</ele>
        <time>2016-06-05T13:27:16Z</time>
      </trkpt>
      <trkpt lat="48.75213" lon="2.78882">
        <ele>105</ele>
        <time>2016-06-05T13:27:29Z</time>
      </trkpt>
      <trkpt lat="48.75218" lon="2.78819">
        <ele>104</ele>
        <time>2016-06-05T13:28:00Z</time>
      </trkpt>
      <trkpt lat="48.75217" lon="2.78797">
        <ele>105</ele>
        <time>2016-06-05T13:28:10Z</time>
      </trkpt>
      <trkpt lat="48.75216" lon="2.78735">
        <ele>106</ele>
        <time>2016-06-05T13:28:43Z</time>
      </trkpt>
      <trkpt lat="48.75216" lon="2.78698">
        <ele>106</ele>
        <time>2016-06-05T13:29:02Z</time>
      </trkpt>
      <trkpt lat="48.75199" lon="2.78672">
        <ele>105</ele>
        <time>2016-06-05T13:29:20Z</time>
      </trkpt>
      <trkpt lat="48.75157" lon="2.78639">
        <ele>106</ele>
        <time>2016-06-05T13:29:55Z</time>
      </trkpt>
      <trkpt lat="48.7513" lon="2.78595">
        <ele>106</ele>
        <time>2016-06-05T13:30:26Z</time>
      </trkpt>
      <trkpt lat="48.75098" lon="2.78552">
        <ele>106</ele>
        <time>2016-06-05T13:30:56Z</time>
      </trkpt>
      <trkpt lat="48.7507" lon="2.78513">
        <ele>105</ele>
        <time>2016-06-05T13:31:27Z</time>
      </trkpt>
      <trkpt lat="48.75052" lon="2.78489">
        <ele>105</ele>
        <time>2016-06-05T13:31:45Z</time>
      </trkpt>
      <trkpt lat="48.75051" lon="2.78481">
        <ele>105</ele>
        <time>2016-06-05T13:31:51Z</time>
      </trkpt>
      <trkpt lat="48.75048" lon="2.78477">
        <ele>105</ele>
        <time>2016-06-05T13:32:24Z</time>
      </trkpt>
      <trkpt lat="48.75051" lon="2.7847">
        <ele>105</ele>
        <time>2016-06-05T13:32:48Z</time>
      </trkpt>
      <trkpt lat="48.7505" lon="2.78462">
        <ele>105</ele>
        <time>2016-06-05T13:32:51Z</time>
      </trkpt>
      <trkpt lat="48.75049" lon="2.78459">
        <ele>105</ele>
        <time>2016-06-05T13:32:57Z</time>
      </trkpt>
      <trkpt lat="48.75045" lon="2.78454">
        <ele>105</ele>
        <time>2016-06-05T13:33:01Z</time>
      </trkpt>
      <trkpt lat="48.75033" lon="2.78412">
        <ele>106</ele>
        <time>2016-06-05T13:33:31Z</time>
      </trkpt>
      <trkpt lat="48.75028" lon="2.78399">
        <ele>106</ele>
        <time>2016-06-05T13:33:42Z</time>
      </trkpt>
      <trkpt lat="48.74997" lon="2.78357">
        <ele>105</ele>
        <time>2016-06-05T13:34:14Z</time>
      </trkpt>
      <trkpt lat="48.74966" lon="2.78308">
        <ele>104</ele>
        <time>2016-06-05T13:34:47Z</time>
      </trkpt>
      <trkpt lat="48.74924" lon="2.78286">
        <ele>105</ele>
        <time>2016-06-05T13:35:22Z</time>
      </trkpt>
      <trkpt lat="48.74891" lon="2.7825">
        <ele>104</ele>
        <time>2016-06-05T13:35:53Z</time>
      </trkpt>
      <trkpt lat="48.74853" lon="2.78211">
        <ele>103</ele>
        <time>2016-06-05T13:36:25Z</time>
      </trkpt>
      <trkpt lat="48.74823" lon="2.78176">
        <ele>103</ele>
        <time>2016-06-05T13:36:57Z</time>
      </trkpt>
      <trkpt lat="48.74784" lon="2.78148">
        <ele>104</ele>
        <time>2016-06-05T13:37:28Z</time>
      </trkpt>
      <trkpt lat="48.74741" lon="2.78143">
        <ele>104</ele>
        <time>2016-06-05T13:38:00Z</time>
      </trkpt>
      <trkpt lat="48.74736" lon="2.78141">
        <ele>103</ele>
        <time>2016-06-05T13:38:03Z</time>
      </trkpt>
      <trkpt lat="48.74735" lon="2.78138">
        <ele>103</ele>
        <time>2016-06-05T13:38:08Z</time>
      </trkpt>
      <trkpt lat="48.74697" lon="2.78109">
        <ele>103</ele>
        <time>2016-06-05T13:38:39Z</time>
      </trkpt>
      <trkpt lat="48.74663" lon="2.78084">
        <ele>103</ele>
        <time>2016-06-05T13:39:09Z</time>
      </trkpt>
      <trkpt lat="48.74626" lon="2.78056">
        <ele>102</ele>
        <time>2016-06-05T13:39:40Z</time>
      </trkpt>
      <trkpt lat="48.74622" lon="2.78052">
        <ele>102</ele>
        <time>2016-06-05T13:39:43Z</time>
      </trkpt>
      <trkpt lat="48.74618" lon="2.78045">
        <ele>101</ele>
        <time>2016-06-05T13:39:49Z</time>
      </trkpt>
      <trkpt lat="48.74594" lon="2.78009">
        <ele>100</ele>
        <time>2016-06-05T13:40:15Z</time>
      </trkpt>
      <trkpt lat="48.74591" lon="2.77991">
        <ele>100</ele>
        <time>2016-06-05T13:40:24Z</time>
      </trkpt>
      <trkpt lat="48.74588" lon="2.77987">
        <ele>100</ele>
        <time>2016-06-05T13:40:28Z</time>
      </trkpt>
      <trkpt lat="48.74587" lon="2.77981">
        <ele>100</ele>
        <time>2016-06-05T13:40:30Z</time>
      </trkpt>
      <trkpt lat="48.74568" lon="2.77921">
        <ele>101</ele>
        <time>2016-06-05T13:41:05Z</time>
      </trkpt>
      <trkpt lat="48.74538" lon="2.77875">
        <ele>102</ele>
        <time>2016-06-05T13:41:35Z</time>
      </trkpt>
      <trkpt lat="48.74521" lon="2.77826">
        <ele>101</ele>
        <time>2016-06-05T13:42:06Z</time>
      </trkpt>
      <trkpt lat="48.74524" lon="2.7782">
        <ele>101</ele>
        <time>2016-06-05T13:42:11Z</time>
      </trkpt>
      <trkpt lat="48.74529" lon="2.77806">
        <ele>101</ele>
        <time>2016-06-05T13:42:20Z</time>
      </trkpt>
      <trkpt lat="48.74525" lon="2.77788">
        <ele>101</ele>
        <time>2016-06-05T13:42:31Z</time>
      </trkpt>
      <trkpt lat="48.74528" lon="2.77767">
        <ele>101</ele>
        <time>2016-06-05T13:42:39Z</time>
      </trkpt>
      <trkpt lat="48.74532" lon="2.77762">
        <ele>101</ele>
        <time>2016-06-05T13:42:44Z</time>
      </trkpt>
      <trkpt lat="48.74537" lon="2.77753">
        <ele>101</ele>
        <time>2016-06-05T13:42:49Z</time>
      </trkpt>
      <trkpt lat="48.74537" lon="2.77719">
        <ele>102</ele>
        <time>2016-06-05T13:43:08Z</time>
      </trkpt>
      <trkpt lat="48.74537" lon="2.77715">
        <ele>102</ele>
        <time>2016-06-05T13:43:09Z</time>
      </trkpt>
      <trkpt lat="48.74532" lon="2.77711">
        <ele>102</ele>
        <time>2016-06-05T13:43:13Z</time>
      </trkpt>
      <trkpt lat="48.74522" lon="2.7769">
        <ele>101</ele>
        <time>2016-06-05T13:43:23Z</time>
      </trkpt>
      <trkpt lat="48.74515" lon="2.77662">
        <ele>99</ele>
        <time>2016-06-05T13:43:45Z</time>
      </trkpt>
      <trkpt lat="48.74511" lon="2.77661">
        <ele>99</ele>
        <time>2016-06-05T13:43:46Z</time>
      </trkpt>
      <trkpt lat="48.74506" lon="2.77654">
        <ele>99</ele>
        <time>2016-06-05T13:43:50Z</time>
      </trkpt>
      <trkpt lat="48.74507" lon="2.77645">
        <ele>99</ele>
        <time>2016-06-05T13:43:56Z</time>
      </trkpt>
      <trkpt lat="48.74506" lon="2.77638">
        <ele>99</ele>
        <time>2016-06-05T13:44:02Z</time>
      </trkpt>
      <trkpt lat="48.74484" lon="2.77609">
        <ele>98</ele>
        <time>2016-06-05T13:44:22Z</time>
      </trkpt>
      <trkpt lat="48.74477" lon="2.77603">
        <ele>98</ele>
        <time>2016-06-05T13:44:29Z</time>
      </trkpt>
      <trkpt lat="48.74476" lon="2.776">
        <ele>98</ele>
        <time>2016-06-05T13:44:35Z</time>
      </trkpt>
      <trkpt lat="48.74477" lon="2.77597">
        <ele>99</ele>
        <time>2016-06-05T13:45:56Z</time>
      </trkpt>
      <trkpt lat="48.74477" lon="2.77588">
        <ele>100</ele>
        <time>2016-06-05T13:46:34Z</time>
      </trkpt>
      <trkpt lat="48.74456" lon="2.77541">
        <ele>101</ele>
        <time>2016-06-05T13:46:57Z</time>
      </trkpt>
      <trkpt lat="48.74428" lon="2.77484">
        <ele>102</ele>
        <time>2016-06-05T13:47:32Z</time>
      </trkpt>
      <trkpt lat="48.74407" lon="2.77434">
        <ele>102</ele>
        <time>2016-06-05T13:48:03Z</time>
      </trkpt>
      <trkpt lat="48.74401" lon="2.7742">
        <ele>102</ele>
        <time>2016-06-05T13:48:08Z</time>
      </trkpt>
      <trkpt lat="48.74381" lon="2.77365">
        <ele>101</ele>
        <time>2016-06-05T13:48:39Z</time>
      </trkpt>
      <trkpt lat="48.74362" lon="2.77301">
        <ele>100</ele>
        <time>2016-06-05T13:49:14Z</time>
      </trkpt>
      <trkpt lat="48.74359" lon="2.77288">
        <ele>100</ele>
        <time>2016-06-05T13:49:19Z</time>
      </trkpt>
      <trkpt lat="48.74361" lon="2.77282">
        <ele>100</ele>
        <time>2016-06-05T13:49:24Z</time>
      </trkpt>
      <trkpt lat="48.74361" lon="2.77272">
        <ele>100</ele>
        <time>2016-06-05T13:49:27Z</time>
      </trkpt>
      <trkpt lat="48.74356" lon="2.77261">
        <ele>100</ele>
        <time>2016-06-05T13:49:35Z</time>
      </trkpt>
      <trkpt lat="48.74346" lon="2.77199">
        <ele>99</ele>
        <time>2016-06-05T13:50:06Z</time>
      </trkpt>
      <trkpt lat="48.74345" lon="2.77184">
        <ele>99</ele>
        <time>2016-06-05T13:50:15Z</time>
      </trkpt>
      <trkpt lat="48.74342" lon="2.77178">
        <ele>99</ele>
        <time>2016-06-05T13:50:21Z</time>
      </trkpt>
      <trkpt lat="48.74341" lon="2.77174">
        <ele>99</ele>
        <time>2016-06-05T13:50:23Z</time>
      </trkpt>
      <trkpt lat="48.74336" lon="2.77149">
        <ele>99</ele>
        <time>2016-06-05T13:50:34Z</time>
      </trkpt>
      <trkpt lat="48.74327" lon="2.7713">
        <ele>99</ele>
        <time>2016-06-05T13:50:44Z</time>
      </trkpt>
      <trkpt lat="48.74309" lon="2.77065">
        <ele>99</ele>
        <time>2016-06-05T13:51:18Z</time>
      </trkpt>
      <trkpt lat="48.74293" lon="2.77038">
        <ele>99</ele>
        <time>2016-06-05T13:51:33Z</time>
      </trkpt>
      <trkpt lat="48.7429" lon="2.77027">
        <ele>99</ele>
        <time>2016-06-05T13:51:40Z</time>
      </trkpt>
      <trkpt lat="48.74279" lon="2.77016">
        <ele>99</ele>
        <time>2016-06-05T13:51:50Z</time>
      </trkpt>
      <trkpt lat="48.74248" lon="2.76995">
        <ele>99</ele>
        <time>2016-06-05T13:52:21Z</time>
      </trkpt>
      <trkpt lat="48.74245" lon="2.76995">
        <ele>99</ele>
        <time>2016-06-05T13:52:23Z</time>
      </trkpt>
      <trkpt lat="48.74218" lon="2.76982">
        <ele>98</ele>
        <time>2016-06-05T13:52:46Z</time>
      </trkpt>
      <trkpt lat="48.74217" lon="2.76974">
        <ele>98</ele>
        <time>2016-06-05T13:52:50Z</time>
      </trkpt>
      <trkpt lat="48.74218" lon="2.76951">
        <ele>97</ele>
        <time>2016-06-05T13:53:06Z</time>
      </trkpt>
      <trkpt lat="48.74198" lon="2.76901">
        <ele>97</ele>
        <time>2016-06-05T13:53:27Z</time>
      </trkpt>
      <trkpt lat="48.74193" lon="2.76898">
        <ele>97</ele>
        <time>2016-06-05T13:53:30Z</time>
      </trkpt>
      <trkpt lat="48.7419" lon="2.76883">
        <ele>97</ele>
        <time>2016-06-05T13:53:41Z</time>
      </trkpt>
      <trkpt lat="48.74188" lon="2.76875">
        <ele>97</ele>
        <time>2016-06-05T13:53:45Z</time>
      </trkpt>
      <trkpt lat="48.74185" lon="2.76868">
        <ele>97</ele>
        <time>2016-06-05T13:53:49Z</time>
      </trkpt>
      <trkpt lat="48.7416" lon="2.76808">
        <ele>96</ele>
        <time>2016-06-05T13:54:20Z</time>
      </trkpt>
      <trkpt lat="48.74159" lon="2.76802">
        <ele>96</ele>
        <time>2016-06-05T13:54:22Z</time>
      </trkpt>
      <trkpt lat="48.74149" lon="2.76793">
        <ele>96</ele>
        <time>2016-06-05T13:54:30Z</time>
      </trkpt>
      <trkpt lat="48.74144" lon="2.76765">
        <ele>96</ele>
        <time>2016-06-05T13:54:43Z</time>
      </trkpt>
      <trkpt lat="48.74128" lon="2.76744">
        <ele>96</ele>
        <time>2016-06-05T13:54:56Z</time>
      </trkpt>
      <trkpt lat="48.74107" lon="2.76712">
        <ele>98</ele>
        <time>2016-06-05T13:55:19Z</time>
      </trkpt>
      <trkpt lat="48.741" lon="2.76709">
        <ele>98</ele>
        <time>2016-06-05T13:55:23Z</time>
      </trkpt>
      <trkpt lat="48.74094" lon="2.76709">
        <ele>99</ele>
        <time>2016-06-05T13:55:32Z</time>
      </trkpt>
      <trkpt lat="48.7409" lon="2.76703">
        <ele>99</ele>
        <time>2016-06-05T13:55:35Z</time>
      </trkpt>
      <trkpt lat="48.74062" lon="2.76657">
        <ele>99</ele>
        <time>2016-06-05T13:56:03Z</time>
      </trkpt>
      <trkpt lat="48.74053" lon="2.766">
        <ele>99</ele>
        <time>2016-06-05T13:56:28Z</time>
      </trkpt>
      <trkpt lat="48.74056" lon="2.76591">
        <ele>99</ele>
        <time>2016-06-05T13:56:38Z</time>
      </trkpt>
      <trkpt lat="48.74055" lon="2.76581">
        <ele>99</ele>
        <time>2016-06-05T13:56:42Z</time>
      </trkpt>
      <trkpt lat="48.74052" lon="2.76576">
        <ele>99</ele>
        <time>2016-06-05T13:56:44Z</time>
      </trkpt>
      <trkpt lat="48.74045" lon="2.7657">
        <ele>100</ele>
        <time>2016-06-05T13:56:51Z</time>
      </trkpt>
      <trkpt lat="48.74043" lon="2.76563">
        <ele>100</ele>
        <time>2016-06-05T13:56:53Z</time>
      </trkpt>
      <trkpt lat="48.7404" lon="2.76556">
        <ele>99</ele>
        <time>2016-06-05T13:57:04Z</time>
      </trkpt>
      <trkpt lat="48.74032" lon="2.76501">
        <ele>100</ele>
        <time>2016-06-05T13:57:29Z</time>
      </trkpt>
      <trkpt lat="48.74022" lon="2.76487">
        <ele>101</ele>
        <time>2016-06-05T13:57:41Z</time>
      </trkpt>
      <trkpt lat="48.74021" lon="2.76478">
        <ele>101</ele>
        <time>2016-06-05T13:57:45Z</time>
      </trkpt>
      <trkpt lat="48.74027" lon="2.76466">
        <ele>101</ele>
        <time>2016-06-05T13:57:52Z</time>
      </trkpt>
      <trkpt lat="48.74025" lon="2.76458">
        <ele>102</ele>
        <time>2016-06-05T13:58:12Z</time>
      </trkpt>
      <trkpt lat="48.74013" lon="2.76441">
        <ele>103</ele>
        <time>2016-06-05T13:58:27Z</time>
      </trkpt>
      <trkpt lat="48.74008" lon="2.76438">
        <ele>103</ele>
        <time>2016-06-05T13:58:30Z</time>
      </trkpt>
      <trkpt lat="48.74001" lon="2.7643">
        <ele>103</ele>
        <time>2016-06-05T13:58:34Z</time>
      </trkpt>
      <trkpt lat="48.73999" lon="2.76421">
        <ele>103</ele>
        <time>2016-06-05T13:58:38Z</time>
      </trkpt>
      <trkpt lat="48.73995" lon="2.76416">
        <ele>103</ele>
        <time>2016-06-05T13:58:41Z</time>
      </trkpt>
      <trkpt lat="48.73989" lon="2.76395">
        <ele>102</ele>
        <time>2016-06-05T13:58:52Z</time>
      </trkpt>
      <trkpt lat="48.73977" lon="2.76379">
        <ele>102</ele>
        <time>2016-06-05T13:59:05Z</time>
      </trkpt>
      <trkpt lat="48.7397" lon="2.76377">
        <ele>101</ele>
        <time>2016-06-05T13:59:08Z</time>
      </trkpt>
      <trkpt lat="48.73967" lon="2.76372">
        <ele>101</ele>
        <time>2016-06-05T13:59:10Z</time>
      </trkpt>
      <trkpt lat="48.7395" lon="2.76315">
        <ele>101</ele>
        <time>2016-06-05T13:59:41Z</time>
      </trkpt>
      <trkpt lat="48.73946" lon="2.76306">
        <ele>101</ele>
        <time>2016-06-05T13:59:43Z</time>
      </trkpt>
      <trkpt lat="48.7393" lon="2.76291">
        <ele>101</ele>
        <time>2016-06-05T13:59:56Z</time>
      </trkpt>
      <trkpt lat="48.7393" lon="2.76286">
        <ele>101</ele>
        <time>2016-06-05T13:59:58Z</time>
      </trkpt>
      <trkpt lat="48.73935" lon="2.76287">
        <ele>101</ele>
        <time>2016-06-05T14:00:03Z</time>
      </trkpt>
      <trkpt lat="48.73934" lon="2.76276">
        <ele>101</ele>
        <time>2016-06-05T14:00:15Z</time>
      </trkpt>
      <trkpt lat="48.7391" lon="2.76222">
        <ele>101</ele>
        <time>2016-06-05T14:00:45Z</time>
      </trkpt>
      <trkpt lat="48.73906" lon="2.76217">
        <ele>101</ele>
        <time>2016-06-05T14:00:49Z</time>
      </trkpt>
      <trkpt lat="48.73879" lon="2.76162">
        <ele>100</ele>
        <time>2016-06-05T14:01:23Z</time>
      </trkpt>
      <trkpt lat="48.7388" lon="2.76154">
        <ele>100</ele>
        <time>2016-06-05T14:01:27Z</time>
      </trkpt>
      <trkpt lat="48.73885" lon="2.76106">
        <ele>101</ele>
        <time>2016-06-05T14:01:50Z</time>
      </trkpt>
      <trkpt lat="48.739" lon="2.76081">
        <ele>102</ele>
        <time>2016-06-05T14:02:05Z</time>
      </trkpt>
      <trkpt lat="48.73901" lon="2.76072">
        <ele>102</ele>
        <time>2016-06-05T14:02:08Z</time>
      </trkpt>
      <trkpt lat="48.73925" lon="2.76038">
        <ele>104</ele>
        <time>2016-06-05T14:02:36Z</time>
      </trkpt>
      <trkpt lat="48.73929" lon="2.76036">
        <ele>104</ele>
        <time>2016-06-05T14:02:39Z</time>
      </trkpt>
      <trkpt lat="48.73933" lon="2.76031">
        <ele>104</ele>
        <time>2016-06-05T14:02:45Z</time>
      </trkpt>
      <trkpt lat="48.73932" lon="2.76024">
        <ele>104</ele>
        <time>2016-06-05T14:02:48Z</time>
      </trkpt>
      <trkpt lat="48.73942" lon="2.7599">
        <ele>105</ele>
        <time>2016-06-05T14:03:02Z</time>
      </trkpt>
      <trkpt lat="48.73946" lon="2.75983">
        <ele>105</ele>
        <time>2016-06-05T14:03:08Z</time>
      </trkpt>
      <trkpt lat="48.73947" lon="2.75974">
        <ele>105</ele>
        <time>2016-06-05T14:03:17Z</time>
      </trkpt>
      <trkpt lat="48.73944" lon="2.75969">
        <ele>106</ele>
        <time>2016-06-05T14:03:26Z</time>
      </trkpt>
    </trkseg>
  </trk>
</gpx>